AAR244 RKSI-PANC
Flight info
| Callsign | AAR244 |
|---|---|
| Flight time | 6h 55m |
| Altitude | 33000 |
| Route | EGOB2E EGOBA Y697 LANAT Y51 SAMON Y142 GTC Y512 OATIS OTR3 PUTER A590 HAMND NEELL7 |
| Aircraft | B744/H-SDE1E2E3FGHIJ3J5M1P1RWXYZ/LB1D1 |
Departure
| Time | 2026-05-05 02:47 |
|---|---|
| Airport | Incheon International Airport (RKSI) |
Arrival
| Time | 2026-05-05 09:42 |
|---|---|
| Airport | Ted Stevens Anchorage International Airport (PANC) |
| Time | Latitude | Longitude | Altitude | Speed | Heading |
|---|---|---|---|---|---|
| 2026-05-05 02:10 | 37.46538 | 126.46195 | 36 ft | 0 kts | 325° |
| 2026-05-05 02:25 | 37.46532 | 126.46200 | 36 ft | 2 kts | 326° |
| 2026-05-05 02:25 | 37.46515 | 126.46215 | 36 ft | 3 kts | 324° |
| 2026-05-05 02:26 | 37.46500 | 126.46229 | 36 ft | 3 kts | 310° |
| 2026-05-05 02:26 | 37.46490 | 126.46246 | 36 ft | 2 kts | 288° |
| 2026-05-05 02:26 | 37.46486 | 126.46265 | 36 ft | 3 kts | 266° |
| 2026-05-05 02:26 | 37.46489 | 126.46284 | 36 ft | 3 kts | 237° |
| 2026-05-05 02:27 | 37.46499 | 126.46302 | 36 ft | 2 kts | 234° |
| 2026-05-05 02:27 | 37.46501 | 126.46305 | 36 ft | 0 kts | 234° |
| 2026-05-05 02:31 | 37.46489 | 126.46284 | 36 ft | 10 kts | 234° |
| 2026-05-05 02:31 | 37.46445 | 126.46190 | 36 ft | 13 kts | 246° |
| 2026-05-05 02:31 | 37.46443 | 126.46065 | 36 ft | 18 kts | 318° |
| 2026-05-05 02:31 | 37.46539 | 126.45977 | 36 ft | 17 kts | 325° |
| 2026-05-05 02:32 | 37.46631 | 126.45896 | 36 ft | 16 kts | 324° |
| 2026-05-05 02:32 | 37.46718 | 126.45819 | 36 ft | 15 kts | 324° |
| 2026-05-05 02:32 | 37.46798 | 126.45745 | 36 ft | 14 kts | 324° |
| 2026-05-05 02:32 | 37.46874 | 126.45677 | 36 ft | 13 kts | 324° |
| 2026-05-05 02:33 | 37.46949 | 126.45609 | 36 ft | 15 kts | 324° |
| 2026-05-05 02:33 | 37.47051 | 126.45517 | 36 ft | 20 kts | 324° |
| 2026-05-05 02:33 | 37.47164 | 126.45416 | 36 ft | 19 kts | 324° |
| 2026-05-05 02:33 | 37.47271 | 126.45320 | 36 ft | 19 kts | 325° |
| 2026-05-05 02:34 | 37.47374 | 126.45229 | 36 ft | 18 kts | 325° |
| 2026-05-05 02:34 | 37.47471 | 126.45143 | 36 ft | 17 kts | 324° |
| 2026-05-05 02:34 | 37.47563 | 126.45060 | 36 ft | 16 kts | 324° |
| 2026-05-05 02:34 | 37.47649 | 126.44983 | 36 ft | 15 kts | 324° |
| 2026-05-05 02:35 | 37.47730 | 126.44910 | 36 ft | 14 kts | 324° |
| 2026-05-05 02:35 | 37.47805 | 126.44841 | 36 ft | 13 kts | 324° |
| 2026-05-05 02:35 | 37.47877 | 126.44777 | 36 ft | 12 kts | 324° |
| 2026-05-05 02:35 | 37.47946 | 126.44714 | 36 ft | 12 kts | 324° |
| 2026-05-05 02:36 | 37.47999 | 126.44641 | 36 ft | 12 kts | 271° |
| 2026-05-05 02:36 | 37.47975 | 126.44580 | 36 ft | 2 kts | 234° |
| 2026-05-05 02:36 | 37.47974 | 126.44578 | 36 ft | 0 kts | 234° |
| 2026-05-05 02:40 | 37.47953 | 126.44542 | 36 ft | 13 kts | 234° |
| 2026-05-05 02:40 | 37.47891 | 126.44435 | 36 ft | 15 kts | 234° |
| 2026-05-05 02:41 | 37.47832 | 126.44333 | 36 ft | 14 kts | 233° |
| 2026-05-05 02:41 | 37.47842 | 126.44234 | 36 ft | 13 kts | 323° |
| 2026-05-05 02:41 | 37.47915 | 126.44168 | 36 ft | 13 kts | 326° |
| 2026-05-05 02:41 | 37.47986 | 126.44107 | 36 ft | 12 kts | 325° |
| 2026-05-05 02:42 | 37.48055 | 126.44045 | 36 ft | 12 kts | 324° |
| 2026-05-05 02:42 | 37.48119 | 126.43987 | 36 ft | 11 kts | 324° |
| 2026-05-05 02:42 | 37.48182 | 126.43931 | 36 ft | 11 kts | 324° |
| 2026-05-05 02:42 | 37.48242 | 126.43877 | 36 ft | 9 kts | 324° |
| 2026-05-05 02:43 | 37.48262 | 126.43823 | 36 ft | 7 kts | 253° |
| 2026-05-05 02:43 | 37.48249 | 126.43795 | 36 ft | 2 kts | 233° |
| 2026-05-05 02:43 | 37.48243 | 126.43785 | 36 ft | 1 kts | 233° |
| 2026-05-05 02:43 | 37.48238 | 126.43776 | 36 ft | 1 kts | 233° |
| 2026-05-05 02:44 | 37.48235 | 126.43770 | 36 ft | 0 kts | 233° |
| 2026-05-05 02:44 | 37.48228 | 126.43758 | 36 ft | 4 kts | 233° |
| 2026-05-05 02:45 | 37.48212 | 126.43732 | 36 ft | 4 kts | 233° |
| 2026-05-05 02:45 | 37.48197 | 126.43707 | 36 ft | 3 kts | 233° |
| 2026-05-05 02:45 | 37.48177 | 126.43675 | 36 ft | 7 kts | 219° |
| 2026-05-05 02:45 | 37.48133 | 126.43667 | 36 ft | 7 kts | 153° |
| 2026-05-05 02:46 | 37.48086 | 126.43706 | 36 ft | 15 kts | 146° |
| 2026-05-05 02:46 | 37.47873 | 126.43896 | 36 ft | 69 kts | 144° |
| 2026-05-05 02:46 | 37.47287 | 126.44422 | 36 ft | 136 kts | 145° |
| 2026-05-05 02:46 | 37.46355 | 126.45255 | 84 ft | 186 kts | 145° |
| 2026-05-05 02:47 | 37.45306 | 126.46232 | 794 ft | 185 kts | 143° |
| 2026-05-05 02:47 | 37.44379 | 126.47341 | 1651 ft | 181 kts | 135° |
| 2026-05-05 02:47 | 37.43565 | 126.48558 | 2338 ft | 186 kts | 131° |
| 2026-05-05 02:47 | 37.42761 | 126.49881 | 2909 ft | 192 kts | 130° |
| 2026-05-05 02:48 | 37.41930 | 126.51234 | 3454 ft | 202 kts | 131° |
| 2026-05-05 02:48 | 37.41009 | 126.52677 | 3645 ft | 221 kts | 132° |
| 2026-05-05 02:48 | 37.39992 | 126.54235 | 3817 ft | 239 kts | 132° |
| 2026-05-05 02:48 | 37.38896 | 126.55906 | 4056 ft | 253 kts | 132° |
| 2026-05-05 02:49 | 37.37725 | 126.57588 | 4469 ft | 258 kts | 140° |
| 2026-05-05 02:49 | 37.36234 | 126.58836 | 4899 ft | 260 kts | 154° |
| 2026-05-05 02:49 | 37.34571 | 126.59774 | 5381 ft | 264 kts | 161° |
| 2026-05-05 02:49 | 37.32833 | 126.60536 | 6018 ft | 266 kts | 164° |
| 2026-05-05 02:50 | 37.31080 | 126.61316 | 6673 ft | 270 kts | 157° |
| 2026-05-05 02:50 | 37.29476 | 126.62608 | 7287 ft | 278 kts | 142° |
| 2026-05-05 02:50 | 37.28161 | 126.64426 | 7891 ft | 286 kts | 128° |
| 2026-05-05 02:50 | 37.27224 | 126.66657 | 8496 ft | 293 kts | 114° |
| 2026-05-05 02:51 | 37.26734 | 126.69156 | 9096 ft | 299 kts | 99° |
| 2026-05-05 02:51 | 37.26723 | 126.71768 | 9638 ft | 302 kts | 85° |
| 2026-05-05 02:51 | 37.27168 | 126.74349 | 9917 ft | 302 kts | 75° |
| 2026-05-05 02:51 | 37.27736 | 126.76928 | 10001 ft | 317 kts | 78° |
| 2026-05-05 02:52 | 37.28112 | 126.79770 | 10020 ft | 343 kts | 84° |
| 2026-05-05 02:52 | 37.28300 | 126.82873 | 10014 ft | 370 kts | 87° |
| 2026-05-05 02:52 | 37.28430 | 126.86216 | 10015 ft | 397 kts | 88° |
| 2026-05-05 02:52 | 37.28562 | 126.89771 | 10263 ft | 415 kts | 87° |
| 2026-05-05 02:53 | 37.28845 | 126.93412 | 10948 ft | 422 kts | 83° |
| 2026-05-05 02:53 | 37.29234 | 126.97085 | 11725 ft | 425 kts | 83° |
| 2026-05-05 02:53 | 37.29596 | 127.00729 | 12517 ft | 428 kts | 83° |
| 2026-05-05 02:53 | 37.29935 | 127.04462 | 13231 ft | 432 kts | 84° |
| 2026-05-05 02:54 | 37.30300 | 127.08275 | 13931 ft | 437 kts | 80° |
| 2026-05-05 02:54 | 37.31237 | 127.11861 | 14568 ft | 440 kts | 64° |
| 2026-05-05 02:54 | 37.32884 | 127.15101 | 15234 ft | 443 kts | 51° |
| 2026-05-05 02:54 | 37.34880 | 127.18081 | 15856 ft | 447 kts | 49° |
| 2026-05-05 02:55 | 37.36927 | 127.21048 | 16450 ft | 452 kts | 48° |
| 2026-05-05 02:55 | 37.39017 | 127.24011 | 17077 ft | 455 kts | 48° |
| 2026-05-05 02:55 | 37.41120 | 127.27011 | 17674 ft | 459 kts | 48° |
| 2026-05-05 02:55 | 37.43236 | 127.30043 | 18231 ft | 463 kts | 48° |
| 2026-05-05 02:56 | 37.45369 | 127.33102 | 18813 ft | 466 kts | 48° |
| 2026-05-05 02:56 | 37.47350 | 127.36354 | 19288 ft | 472 kts | 59° |
| 2026-05-05 02:56 | 37.48691 | 127.40127 | 19841 ft | 475 kts | 69° |
| 2026-05-05 02:56 | 37.49716 | 127.44099 | 20337 ft | 479 kts | 73° |
| 2026-05-05 02:57 | 37.50513 | 127.48187 | 20847 ft | 483 kts | 77° |
| 2026-05-05 02:57 | 37.51143 | 127.52363 | 21276 ft | 488 kts | 79° |
| 2026-05-05 02:57 | 37.51752 | 127.56579 | 21799 ft | 490 kts | 78° |
| 2026-05-05 02:57 | 37.52415 | 127.60800 | 22308 ft | 493 kts | 78° |
| 2026-05-05 02:58 | 37.52862 | 127.63616 | 22538 ft | 498 kts | 78° |
| 2026-05-05 02:58 | 37.53543 | 127.67911 | 23022 ft | 500 kts | 78° |
| 2026-05-05 02:58 | 37.54222 | 127.72211 | 23501 ft | 503 kts | 78° |
| 2026-05-05 02:58 | 37.54926 | 127.76542 | 23965 ft | 505 kts | 77° |
| 2026-05-05 02:59 | 37.55629 | 127.80888 | 24355 ft | 509 kts | 78° |
| 2026-05-05 02:59 | 37.56322 | 127.85286 | 24711 ft | 513 kts | 78° |
| 2026-05-05 02:59 | 37.57012 | 127.89711 | 25101 ft | 516 kts | 78° |
| 2026-05-05 02:59 | 37.57702 | 127.94164 | 25443 ft | 519 kts | 78° |
| 2026-05-05 03:00 | 37.58393 | 127.98637 | 25834 ft | 521 kts | 78° |
| 2026-05-05 03:00 | 37.59086 | 128.03128 | 26249 ft | 522 kts | 78° |
| 2026-05-05 03:00 | 37.59777 | 128.07610 | 26745 ft | 521 kts | 78° |
| 2026-05-05 03:00 | 37.60469 | 128.12089 | 27220 ft | 520 kts | 78° |
| 2026-05-05 03:01 | 37.61158 | 128.16563 | 27636 ft | 520 kts | 78° |
| 2026-05-05 03:01 | 37.61862 | 128.21026 | 28040 ft | 519 kts | 77° |
| 2026-05-05 03:01 | 37.62572 | 128.25491 | 28482 ft | 518 kts | 78° |
| 2026-05-05 03:01 | 37.63259 | 128.29957 | 28848 ft | 518 kts | 78° |
| 2026-05-05 03:02 | 37.63938 | 128.34418 | 29241 ft | 518 kts | 78° |
| 2026-05-05 03:02 | 37.64613 | 128.38881 | 29609 ft | 517 kts | 78° |
| 2026-05-05 03:02 | 37.65285 | 128.43330 | 30025 ft | 516 kts | 78° |
| 2026-05-05 03:02 | 37.65954 | 128.47775 | 30335 ft | 516 kts | 78° |
| 2026-05-05 03:03 | 37.66625 | 128.52230 | 30649 ft | 516 kts | 78° |
| 2026-05-05 03:03 | 37.67296 | 128.56679 | 30953 ft | 516 kts | 78° |
| 2026-05-05 03:03 | 37.67967 | 128.61131 | 31279 ft | 516 kts | 78° |
| 2026-05-05 03:03 | 37.68632 | 128.65584 | 31604 ft | 515 kts | 78° |
| 2026-05-05 03:04 | 37.69143 | 128.70055 | 31861 ft | 515 kts | 88° |
| 2026-05-05 03:04 | 37.68848 | 128.74496 | 32050 ft | 515 kts | 102° |
| 2026-05-05 03:04 | 37.67741 | 128.78785 | 32271 ft | 514 kts | 113° |
| 2026-05-05 03:04 | 37.66293 | 128.82908 | 32501 ft | 514 kts | 116° |
| 2026-05-05 03:05 | 37.64645 | 128.86900 | 32748 ft | 513 kts | 120° |
| 2026-05-05 03:05 | 37.62834 | 128.90768 | 32980 ft | 512 kts | 123° |
| 2026-05-05 03:05 | 37.60947 | 128.94569 | 33076 ft | 511 kts | 123° |
| 2026-05-05 03:06 | 37.57247 | 129.02234 | 33081 ft | 512 kts | 123° |
| 2026-05-05 03:06 | 37.53541 | 129.09905 | 33082 ft | 512 kts | 123° |
| 2026-05-05 03:07 | 37.49825 | 129.17574 | 33083 ft | 513 kts | 123° |
| 2026-05-05 03:07 | 37.46103 | 129.25246 | 33085 ft | 513 kts | 123° |
| 2026-05-05 03:08 | 37.42381 | 129.32915 | 33086 ft | 514 kts | 123° |
| 2026-05-05 03:08 | 37.38649 | 129.40576 | 33087 ft | 514 kts | 123° |
| 2026-05-05 03:09 | 37.34910 | 129.48240 | 33089 ft | 514 kts | 123° |
| 2026-05-05 03:09 | 37.31204 | 129.55937 | 33090 ft | 515 kts | 123° |
| 2026-05-05 03:10 | 37.27467 | 129.63599 | 33095 ft | 515 kts | 123° |
| 2026-05-05 03:10 | 37.23728 | 129.71207 | 33098 ft | 515 kts | 123° |
| 2026-05-05 03:11 | 37.19961 | 129.78859 | 33101 ft | 515 kts | 123° |
| 2026-05-05 03:11 | 37.16198 | 129.86499 | 33103 ft | 515 kts | 124° |
| 2026-05-05 03:12 | 37.12416 | 129.94130 | 33105 ft | 515 kts | 124° |
| 2026-05-05 03:12 | 37.08627 | 130.01758 | 33107 ft | 516 kts | 124° |
| 2026-05-05 03:13 | 37.04820 | 130.09407 | 33110 ft | 519 kts | 124° |
| 2026-05-05 03:13 | 37.00999 | 130.17069 | 33111 ft | 519 kts | 124° |
| 2026-05-05 03:14 | 36.97190 | 130.24754 | 33114 ft | 520 kts | 124° |
| 2026-05-05 03:14 | 36.93382 | 130.32436 | 33115 ft | 520 kts | 124° |
| 2026-05-05 03:15 | 36.89570 | 130.40135 | 33116 ft | 521 kts | 125° |
| 2026-05-05 03:15 | 36.85722 | 130.47799 | 33118 ft | 521 kts | 125° |
| 2026-05-05 03:16 | 36.81889 | 130.55404 | 33121 ft | 521 kts | 125° |
| 2026-05-05 03:16 | 36.78023 | 130.63053 | 33138 ft | 521 kts | 125° |
| 2026-05-05 03:17 | 36.74156 | 130.70698 | 33140 ft | 522 kts | 125° |
| 2026-05-05 03:17 | 36.70276 | 130.78343 | 33141 ft | 522 kts | 125° |
| 2026-05-05 03:18 | 36.66386 | 130.85987 | 33144 ft | 522 kts | 126° |
| 2026-05-05 03:18 | 36.62496 | 130.93615 | 33145 ft | 522 kts | 126° |
| 2026-05-05 03:19 | 36.56655 | 131.05059 | 33147 ft | 523 kts | 125° |
| 2026-05-05 03:19 | 36.52801 | 131.12733 | 33149 ft | 523 kts | 126° |
| 2026-05-05 03:20 | 36.48901 | 131.20372 | 33150 ft | 523 kts | 126° |
| 2026-05-05 03:20 | 36.44979 | 131.27989 | 33163 ft | 524 kts | 126° |
| 2026-05-05 03:21 | 36.41049 | 131.35606 | 33161 ft | 524 kts | 126° |
| 2026-05-05 03:21 | 36.37977 | 131.43795 | 33169 ft | 531 kts | 106° |
| 2026-05-05 03:22 | 36.36894 | 131.52850 | 33167 ft | 538 kts | 96° |
| 2026-05-05 03:22 | 36.36577 | 131.62136 | 33167 ft | 540 kts | 93° |
| 2026-05-05 03:23 | 36.36358 | 131.71452 | 33168 ft | 541 kts | 94° |
| 2026-05-05 03:23 | 36.36063 | 131.80770 | 33166 ft | 541 kts | 94° |
| 2026-05-05 03:24 | 36.35775 | 131.90101 | 33166 ft | 542 kts | 94° |
| 2026-05-05 03:24 | 36.35496 | 131.99438 | 33166 ft | 542 kts | 94° |
| 2026-05-05 03:25 | 36.35185 | 132.08782 | 33167 ft | 542 kts | 94° |
| 2026-05-05 03:25 | 36.34857 | 132.18129 | 33167 ft | 543 kts | 94° |
| 2026-05-05 03:26 | 36.34521 | 132.27476 | 33168 ft | 542 kts | 94° |
| 2026-05-05 03:26 | 36.34176 | 132.36823 | 33169 ft | 542 kts | 94° |
| 2026-05-05 03:27 | 36.33823 | 132.46163 | 33169 ft | 542 kts | 94° |
| 2026-05-05 03:27 | 36.33467 | 132.55445 | 33169 ft | 542 kts | 94° |
| 2026-05-05 03:28 | 36.33100 | 132.64789 | 33170 ft | 542 kts | 94° |
| 2026-05-05 03:28 | 36.32725 | 132.74130 | 33170 ft | 542 kts | 94° |
| 2026-05-05 03:29 | 36.32344 | 132.83471 | 33171 ft | 542 kts | 94° |
| 2026-05-05 03:29 | 36.31955 | 132.92820 | 33183 ft | 543 kts | 94° |
| 2026-05-05 03:30 | 36.31558 | 133.02184 | 33185 ft | 544 kts | 94° |
| 2026-05-05 03:30 | 36.31153 | 133.11559 | 33186 ft | 545 kts | 95° |
| 2026-05-05 03:31 | 36.30743 | 133.20887 | 33187 ft | 546 kts | 95° |
| 2026-05-05 03:31 | 36.30323 | 133.30280 | 33198 ft | 546 kts | 95° |
| 2026-05-05 03:32 | 36.29916 | 133.39691 | 33199 ft | 547 kts | 95° |
| 2026-05-05 03:32 | 36.29492 | 133.49117 | 33199 ft | 548 kts | 95° |
| 2026-05-05 03:33 | 36.29034 | 133.58555 | 33200 ft | 549 kts | 95° |
| 2026-05-05 03:33 | 36.28569 | 133.68002 | 33176 ft | 548 kts | 96° |
| 2026-05-05 03:34 | 36.28106 | 133.77409 | 33170 ft | 546 kts | 95° |
| 2026-05-05 03:34 | 36.27661 | 133.86809 | 33172 ft | 547 kts | 96° |
| 2026-05-05 03:35 | 36.27175 | 133.96234 | 33172 ft | 548 kts | 96° |
| 2026-05-05 03:35 | 36.26685 | 134.05658 | 33172 ft | 548 kts | 96° |
| 2026-05-05 03:36 | 36.26217 | 134.15097 | 33172 ft | 549 kts | 96° |
| 2026-05-05 03:36 | 36.25722 | 134.24533 | 33182 ft | 549 kts | 96° |
| 2026-05-05 03:37 | 36.25205 | 134.33900 | 33182 ft | 549 kts | 96° |
| 2026-05-05 03:37 | 36.24680 | 134.43327 | 33185 ft | 548 kts | 96° |
| 2026-05-05 03:38 | 36.24787 | 134.48038 | 33187 ft | 549 kts | 82° |
| 2026-05-05 03:38 | 36.25689 | 134.52632 | 33199 ft | 550 kts | 73° |
| 2026-05-05 03:38 | 36.28514 | 134.61451 | 33194 ft | 551 kts | 64° |
| 2026-05-05 03:39 | 36.31955 | 134.69945 | 33189 ft | 551 kts | 61° |
| 2026-05-05 03:39 | 36.35397 | 134.78433 | 33188 ft | 550 kts | 62° |
| 2026-05-05 03:40 | 36.38777 | 134.86956 | 33197 ft | 551 kts | 62° |
| 2026-05-05 03:40 | 36.42187 | 134.95484 | 33199 ft | 552 kts | 62° |
| 2026-05-05 03:41 | 36.45582 | 135.04035 | 33198 ft | 553 kts | 62° |
| 2026-05-05 03:41 | 36.48941 | 135.12557 | 33201 ft | 553 kts | 62° |
| 2026-05-05 03:42 | 36.52309 | 135.21156 | 33199 ft | 554 kts | 62° |
| 2026-05-05 03:42 | 36.55677 | 135.29776 | 33199 ft | 555 kts | 62° |
| 2026-05-05 03:43 | 36.59043 | 135.38414 | 33198 ft | 555 kts | 62° |
| 2026-05-05 03:43 | 36.62406 | 135.47069 | 33199 ft | 556 kts | 62° |
| 2026-05-05 03:44 | 36.65766 | 135.55739 | 33199 ft | 556 kts | 62° |
| 2026-05-05 03:44 | 36.69117 | 135.64409 | 33199 ft | 555 kts | 62° |
| 2026-05-05 03:45 | 36.72462 | 135.73088 | 33200 ft | 555 kts | 62° |
| 2026-05-05 03:45 | 36.75800 | 135.81774 | 33199 ft | 555 kts | 63° |
| 2026-05-05 03:46 | 36.79110 | 135.90411 | 33200 ft | 555 kts | 62° |
| 2026-05-05 03:46 | 36.82433 | 135.99104 | 33200 ft | 555 kts | 63° |
| 2026-05-05 03:47 | 36.85753 | 136.07817 | 33200 ft | 558 kts | 62° |
| 2026-05-05 03:47 | 36.89084 | 136.16579 | 33200 ft | 558 kts | 62° |
| 2026-05-05 03:48 | 36.92406 | 136.25343 | 33200 ft | 558 kts | 63° |
| 2026-05-05 03:48 | 36.95714 | 136.34095 | 33199 ft | 556 kts | 62° |
| 2026-05-05 03:49 | 36.99043 | 136.42825 | 33201 ft | 556 kts | 62° |
| 2026-05-05 03:49 | 37.02324 | 136.51583 | 33200 ft | 556 kts | 63° |
| 2026-05-05 03:50 | 37.05596 | 136.60355 | 33199 ft | 556 kts | 63° |
| 2026-05-05 03:50 | 37.08869 | 136.69135 | 33200 ft | 557 kts | 62° |
| 2026-05-05 03:51 | 37.12117 | 136.77870 | 33200 ft | 557 kts | 63° |
| 2026-05-05 03:51 | 37.15378 | 136.86683 | 33200 ft | 557 kts | 63° |
| 2026-05-05 03:52 | 37.18630 | 136.95510 | 33200 ft | 558 kts | 63° |
| 2026-05-05 03:52 | 37.21878 | 137.04351 | 33199 ft | 558 kts | 63° |
| 2026-05-05 03:53 | 37.24592 | 137.11755 | 33200 ft | 557 kts | 63° |
| 2026-05-05 03:53 | 37.27859 | 137.20513 | 33200 ft | 558 kts | 62° |
| 2026-05-05 03:54 | 37.31117 | 137.29356 | 33199 ft | 558 kts | 63° |
| 2026-05-05 03:54 | 37.34357 | 137.38209 | 33198 ft | 558 kts | 63° |
| 2026-05-05 03:55 | 37.37585 | 137.47064 | 33197 ft | 556 kts | 63° |
| 2026-05-05 03:55 | 37.40798 | 137.55906 | 33196 ft | 556 kts | 63° |
| 2026-05-05 03:56 | 37.44005 | 137.64758 | 33195 ft | 556 kts | 63° |
| 2026-05-05 03:56 | 37.47204 | 137.73614 | 33193 ft | 555 kts | 63° |
| 2026-05-05 03:57 | 37.50388 | 137.82453 | 33193 ft | 554 kts | 63° |
| 2026-05-05 03:57 | 37.53537 | 137.91222 | 33192 ft | 553 kts | 63° |
| 2026-05-05 03:58 | 37.56696 | 138.00044 | 33199 ft | 552 kts | 63° |
| 2026-05-05 03:58 | 37.59875 | 138.08855 | 33200 ft | 554 kts | 63° |
| 2026-05-05 03:59 | 37.63030 | 138.17722 | 33200 ft | 554 kts | 63° |
| 2026-05-05 03:59 | 37.66169 | 138.26610 | 33199 ft | 554 kts | 63° |
| 2026-05-05 04:00 | 37.69301 | 138.35492 | 33198 ft | 555 kts | 63° |
| 2026-05-05 04:00 | 37.72439 | 138.44398 | 33198 ft | 556 kts | 63° |
| 2026-05-05 04:01 | 37.75577 | 138.53345 | 33199 ft | 557 kts | 63° |
| 2026-05-05 04:01 | 37.78713 | 138.62319 | 33199 ft | 559 kts | 63° |
| 2026-05-05 04:02 | 37.81855 | 138.71333 | 33200 ft | 561 kts | 63° |
| 2026-05-05 04:02 | 37.85061 | 138.80352 | 33199 ft | 563 kts | 63° |
| 2026-05-05 04:03 | 37.88227 | 138.89428 | 33200 ft | 565 kts | 63° |
| 2026-05-05 04:03 | 37.91373 | 138.98546 | 33200 ft | 566 kts | 64° |
| 2026-05-05 04:04 | 37.94498 | 139.07626 | 33191 ft | 566 kts | 65° |
| 2026-05-05 04:04 | 37.96574 | 139.17279 | 33204 ft | 570 kts | 78° |
| 2026-05-05 04:05 | 37.97617 | 139.27273 | 33208 ft | 574 kts | 83° |
| 2026-05-05 04:05 | 37.98575 | 139.37325 | 33201 ft | 575 kts | 82° |
| 2026-05-05 04:06 | 37.99670 | 139.47373 | 33195 ft | 576 kts | 82° |
| 2026-05-05 04:06 | 38.00702 | 139.57377 | 33202 ft | 567 kts | 82° |
| 2026-05-05 04:07 | 38.01715 | 139.67343 | 33177 ft | 572 kts | 82° |
| 2026-05-05 04:07 | 38.02735 | 139.77349 | 33197 ft | 573 kts | 82° |
| 2026-05-05 04:08 | 38.03748 | 139.87395 | 33218 ft | 573 kts | 82° |
| 2026-05-05 04:08 | 38.04739 | 139.97443 | 33221 ft | 573 kts | 82° |
| 2026-05-05 04:09 | 38.05722 | 140.07489 | 33193 ft | 574 kts | 82° |
| 2026-05-05 04:09 | 38.06699 | 140.17555 | 33173 ft | 575 kts | 82° |
| 2026-05-05 04:10 | 38.07718 | 140.27523 | 33154 ft | 571 kts | 82° |
| 2026-05-05 04:10 | 38.08707 | 140.37553 | 33196 ft | 572 kts | 82° |
| 2026-05-05 04:11 | 38.09675 | 140.47591 | 33161 ft | 573 kts | 82° |
| 2026-05-05 04:11 | 38.10666 | 140.57643 | 33154 ft | 575 kts | 82° |
| 2026-05-05 04:12 | 38.11618 | 140.67714 | 33150 ft | 575 kts | 83° |
| 2026-05-05 04:12 | 38.12545 | 140.77788 | 33146 ft | 575 kts | 83° |
| 2026-05-05 04:13 | 38.13467 | 140.87884 | 33142 ft | 576 kts | 84° |
| 2026-05-05 04:13 | 38.13319 | 140.98046 | 33146 ft | 577 kts | 97° |
| 2026-05-05 04:14 | 38.12178 | 141.08145 | 33143 ft | 577 kts | 101° |
| 2026-05-05 04:14 | 38.10923 | 141.18159 | 33142 ft | 579 kts | 101° |
| 2026-05-05 04:15 | 38.09726 | 141.28288 | 33144 ft | 582 kts | 101° |
| 2026-05-05 04:15 | 38.08556 | 141.38475 | 33144 ft | 584 kts | 101° |
| 2026-05-05 04:16 | 38.07410 | 141.48690 | 33146 ft | 586 kts | 101° |
| 2026-05-05 04:16 | 38.06221 | 141.58938 | 33149 ft | 589 kts | 102° |
| 2026-05-05 04:17 | 38.05030 | 141.69239 | 33149 ft | 591 kts | 101° |
| 2026-05-05 04:17 | 38.03823 | 141.79548 | 33149 ft | 591 kts | 102° |
| 2026-05-05 04:18 | 38.02574 | 141.89863 | 33150 ft | 592 kts | 102° |
| 2026-05-05 04:18 | 38.01317 | 142.00190 | 33150 ft | 593 kts | 102° |
| 2026-05-05 04:19 | 38.00057 | 142.10518 | 33150 ft | 593 kts | 103° |
| 2026-05-05 04:19 | 37.98777 | 142.20839 | 33150 ft | 592 kts | 103° |
| 2026-05-05 04:20 | 37.97485 | 142.31152 | 33150 ft | 593 kts | 103° |
| 2026-05-05 04:20 | 37.96185 | 142.41468 | 33149 ft | 593 kts | 103° |
| 2026-05-05 04:21 | 37.94889 | 142.51800 | 33149 ft | 594 kts | 103° |
| 2026-05-05 04:21 | 37.93630 | 142.62138 | 33149 ft | 594 kts | 104° |
| 2026-05-05 04:22 | 37.92327 | 142.72470 | 33148 ft | 594 kts | 104° |
| 2026-05-05 04:22 | 37.91007 | 142.82795 | 33147 ft | 594 kts | 105° |
| 2026-05-05 04:23 | 37.89722 | 142.93066 | 33146 ft | 594 kts | 105° |
| 2026-05-05 04:23 | 37.88372 | 143.03374 | 33145 ft | 593 kts | 106° |
| 2026-05-05 04:24 | 37.87012 | 143.13658 | 33144 ft | 592 kts | 107° |
| 2026-05-05 04:25 | 37.84988 | 143.29080 | 33143 ft | 592 kts | 107° |
| 2026-05-05 04:25 | 37.83617 | 143.39344 | 33141 ft | 592 kts | 107° |
| 2026-05-05 04:26 | 37.82351 | 143.49633 | 33119 ft | 598 kts | 99° |
| 2026-05-05 04:26 | 37.82561 | 143.54917 | 33141 ft | 605 kts | 86° |
| 2026-05-05 04:26 | 37.83380 | 143.60154 | 33158 ft | 610 kts | 80° |
| 2026-05-05 04:26 | 37.84538 | 143.65320 | 33315 ft | 614 kts | 74° |
| 2026-05-05 04:27 | 37.85967 | 143.70432 | 33498 ft | 616 kts | 71° |
| 2026-05-05 04:27 | 37.87445 | 143.75496 | 33807 ft | 614 kts | 72° |
| 2026-05-05 04:27 | 37.88849 | 143.80607 | 33943 ft | 616 kts | 73° |
| 2026-05-05 04:27 | 37.90217 | 143.85751 | 34147 ft | 616 kts | 73° |
| 2026-05-05 04:28 | 37.91582 | 143.90890 | 34382 ft | 615 kts | 73° |
| 2026-05-05 04:28 | 37.92945 | 143.96013 | 34624 ft | 614 kts | 73° |
| 2026-05-05 04:28 | 37.94306 | 144.01136 | 34838 ft | 613 kts | 73° |
| 2026-05-05 04:28 | 37.95664 | 144.06259 | 34996 ft | 614 kts | 73° |
| 2026-05-05 04:29 | 37.97016 | 144.11385 | 35104 ft | 614 kts | 73° |
| 2026-05-05 04:29 | 37.99714 | 144.21655 | 35128 ft | 614 kts | 73° |
| 2026-05-05 04:30 | 38.02402 | 144.31926 | 35127 ft | 614 kts | 73° |
| 2026-05-05 04:30 | 38.05084 | 144.42200 | 35125 ft | 613 kts | 73° |
| 2026-05-05 04:31 | 38.07814 | 144.52459 | 35122 ft | 613 kts | 73° |
| 2026-05-05 04:31 | 38.10506 | 144.62737 | 35120 ft | 613 kts | 73° |
| 2026-05-05 04:32 | 38.13200 | 144.73016 | 35117 ft | 614 kts | 74° |
| 2026-05-05 04:32 | 38.15853 | 144.83357 | 35114 ft | 616 kts | 74° |
| 2026-05-05 04:33 | 38.18503 | 144.93725 | 35112 ft | 618 kts | 74° |
| 2026-05-05 04:33 | 38.21162 | 145.04137 | 35125 ft | 620 kts | 75° |
| 2026-05-05 04:34 | 38.23824 | 145.14588 | 35112 ft | 623 kts | 74° |
| 2026-05-05 04:34 | 38.26527 | 145.25084 | 35111 ft | 626 kts | 75° |
| 2026-05-05 04:35 | 38.29181 | 145.35650 | 35110 ft | 627 kts | 75° |
| 2026-05-05 04:35 | 38.31876 | 145.46162 | 35090 ft | 632 kts | 70° |
| 2026-05-05 04:35 | 38.33926 | 145.51114 | 35103 ft | 634 kts | 57° |
| 2026-05-05 04:36 | 38.36574 | 145.55605 | 35099 ft | 635 kts | 49° |
| 2026-05-05 04:36 | 38.42732 | 145.63634 | 35106 ft | 633 kts | 39° |
| 2026-05-05 04:37 | 38.49301 | 145.71074 | 35105 ft | 629 kts | 37° |
| 2026-05-05 04:37 | 38.55773 | 145.78599 | 35106 ft | 628 kts | 38° |
| 2026-05-05 04:38 | 38.62206 | 145.86161 | 35025 ft | 629 kts | 38° |
| 2026-05-05 04:38 | 38.68619 | 145.93738 | 35006 ft | 626 kts | 38° |
| 2026-05-05 04:39 | 38.74987 | 146.01318 | 35002 ft | 624 kts | 38° |
| 2026-05-05 04:39 | 38.81361 | 146.08935 | 35001 ft | 628 kts | 39° |
| 2026-05-05 04:40 | 38.87742 | 146.16585 | 34996 ft | 627 kts | 39° |
| 2026-05-05 04:40 | 38.94093 | 146.24219 | 34992 ft | 624 kts | 39° |
| 2026-05-05 04:41 | 39.00411 | 146.31832 | 34988 ft | 621 kts | 39° |
| 2026-05-05 04:41 | 39.05638 | 146.38146 | 34985 ft | 620 kts | 39° |
| 2026-05-05 04:42 | 39.11910 | 146.45741 | 34982 ft | 619 kts | 39° |
| 2026-05-05 04:42 | 39.19222 | 146.54619 | 34978 ft | 617 kts | 40° |
| 2026-05-05 04:43 | 39.24403 | 146.60925 | 34976 ft | 616 kts | 40° |
| 2026-05-05 04:43 | 39.30632 | 146.68526 | 34972 ft | 616 kts | 40° |
| 2026-05-05 04:44 | 39.36851 | 146.76133 | 34969 ft | 615 kts | 40° |
| 2026-05-05 04:44 | 39.43061 | 146.83748 | 34966 ft | 616 kts | 40° |
| 2026-05-05 04:45 | 39.49282 | 146.91398 | 34964 ft | 617 kts | 40° |
| 2026-05-05 04:45 | 39.55505 | 146.99070 | 34960 ft | 618 kts | 40° |
| 2026-05-05 04:46 | 39.61729 | 147.06764 | 34958 ft | 618 kts | 40° |
| 2026-05-05 04:46 | 39.67957 | 147.14482 | 34952 ft | 620 kts | 40° |
| 2026-05-05 04:47 | 39.74195 | 147.22232 | 34942 ft | 622 kts | 40° |
| 2026-05-05 04:47 | 39.80445 | 147.30019 | 34937 ft | 623 kts | 40° |
| 2026-05-05 04:48 | 39.86712 | 147.37847 | 34935 ft | 625 kts | 41° |
| 2026-05-05 04:48 | 39.92986 | 147.45705 | 34932 ft | 626 kts | 41° |
| 2026-05-05 04:49 | 39.99254 | 147.53578 | 34929 ft | 626 kts | 41° |
| 2026-05-05 04:49 | 40.05524 | 147.61471 | 34929 ft | 625 kts | 41° |
| 2026-05-05 04:50 | 40.11767 | 147.69355 | 34924 ft | 625 kts | 41° |
| 2026-05-05 04:50 | 40.18023 | 147.77275 | 34922 ft | 627 kts | 41° |
| 2026-05-05 04:51 | 40.24282 | 147.85220 | 34919 ft | 627 kts | 41° |
| 2026-05-05 04:51 | 40.30540 | 147.93186 | 34917 ft | 627 kts | 41° |
| 2026-05-05 04:52 | 40.36781 | 148.01153 | 34915 ft | 626 kts | 41° |
| 2026-05-05 04:52 | 40.43026 | 148.09146 | 34913 ft | 628 kts | 41° |
| 2026-05-05 04:53 | 40.49278 | 148.17169 | 34909 ft | 628 kts | 42° |
| 2026-05-05 04:53 | 40.55467 | 148.25134 | 34909 ft | 627 kts | 42° |
| 2026-05-05 04:54 | 40.61689 | 148.33163 | 34905 ft | 625 kts | 42° |
| 2026-05-05 04:54 | 40.67886 | 148.41182 | 34904 ft | 624 kts | 42° |
| 2026-05-05 04:55 | 40.74076 | 148.49214 | 34901 ft | 624 kts | 43° |
| 2026-05-05 04:55 | 40.80253 | 148.57251 | 34899 ft | 623 kts | 43° |
| 2026-05-05 04:56 | 40.86419 | 148.65287 | 34898 ft | 623 kts | 42° |
| 2026-05-05 04:56 | 40.92589 | 148.73317 | 34896 ft | 622 kts | 43° |
| 2026-05-05 04:57 | 40.98726 | 148.81393 | 34886 ft | 622 kts | 43° |
| 2026-05-05 04:57 | 41.04859 | 148.89484 | 34884 ft | 623 kts | 43° |
| 2026-05-05 04:58 | 41.10992 | 148.97589 | 34883 ft | 623 kts | 43° |
| 2026-05-05 04:58 | 41.17115 | 149.05719 | 34882 ft | 623 kts | 44° |
| 2026-05-05 04:59 | 41.23229 | 149.13874 | 34881 ft | 623 kts | 44° |
| 2026-05-05 04:59 | 41.29345 | 149.22060 | 34878 ft | 624 kts | 44° |
| 2026-05-05 05:00 | 41.35478 | 149.30236 | 34878 ft | 625 kts | 43° |
| 2026-05-05 05:00 | 41.41640 | 149.38422 | 34876 ft | 626 kts | 44° |
| 2026-05-05 05:01 | 41.47783 | 149.46652 | 34875 ft | 627 kts | 44° |
| 2026-05-05 05:01 | 41.53889 | 149.54871 | 34873 ft | 628 kts | 44° |
| 2026-05-05 05:02 | 41.60031 | 149.63164 | 34873 ft | 628 kts | 44° |
| 2026-05-05 05:02 | 41.66166 | 149.71473 | 34872 ft | 628 kts | 44° |
| 2026-05-05 05:03 | 41.72302 | 149.79809 | 34870 ft | 629 kts | 44° |
| 2026-05-05 05:03 | 41.78440 | 149.88172 | 34869 ft | 629 kts | 44° |
| 2026-05-05 05:04 | 41.84576 | 149.96556 | 34866 ft | 630 kts | 44° |
| 2026-05-05 05:04 | 41.90713 | 150.04965 | 34864 ft | 630 kts | 44° |
| 2026-05-05 05:05 | 41.96841 | 150.13387 | 34863 ft | 630 kts | 44° |
| 2026-05-05 05:05 | 42.02960 | 150.21821 | 34861 ft | 630 kts | 44° |
| 2026-05-05 05:06 | 42.09073 | 150.30272 | 34860 ft | 630 kts | 45° |
| 2026-05-05 05:06 | 42.15179 | 150.38738 | 34859 ft | 630 kts | 45° |
| 2026-05-05 05:07 | 42.21284 | 150.47227 | 34857 ft | 630 kts | 45° |
| 2026-05-05 05:07 | 42.27374 | 150.55722 | 34856 ft | 630 kts | 45° |
| 2026-05-05 05:08 | 42.33465 | 150.64242 | 34855 ft | 630 kts | 45° |
| 2026-05-05 05:08 | 42.39546 | 150.72774 | 34852 ft | 630 kts | 45° |
| 2026-05-05 05:09 | 42.45624 | 150.81326 | 34853 ft | 631 kts | 45° |
| 2026-05-05 05:09 | 42.51713 | 150.89921 | 34850 ft | 632 kts | 45° |
| 2026-05-05 05:10 | 42.57796 | 150.98533 | 34848 ft | 632 kts | 45° |
| 2026-05-05 05:10 | 42.63878 | 151.07169 | 34847 ft | 633 kts | 45° |
| 2026-05-05 05:11 | 42.69963 | 151.15835 | 34845 ft | 634 kts | 45° |
| 2026-05-05 05:11 | 42.76042 | 151.24520 | 34843 ft | 634 kts | 46° |
| 2026-05-05 05:12 | 42.82082 | 151.33175 | 34842 ft | 635 kts | 46° |
| 2026-05-05 05:12 | 42.88196 | 151.41963 | 34840 ft | 635 kts | 46° |
| 2026-05-05 05:13 | 42.94226 | 151.50656 | 34837 ft | 634 kts | 46° |
| 2026-05-05 05:13 | 43.00282 | 151.59415 | 34836 ft | 634 kts | 46° |
| 2026-05-05 05:14 | 43.06326 | 151.68182 | 34809 ft | 633 kts | 46° |
| 2026-05-05 05:14 | 43.12352 | 151.76951 | 34802 ft | 632 kts | 46° |
| 2026-05-05 05:15 | 43.18360 | 151.85718 | 34800 ft | 631 kts | 46° |
| 2026-05-05 05:15 | 43.24356 | 151.94497 | 34798 ft | 631 kts | 46° |
| 2026-05-05 05:16 | 43.30344 | 152.03291 | 34796 ft | 631 kts | 46° |
| 2026-05-05 05:16 | 43.36343 | 152.12130 | 34801 ft | 633 kts | 47° |
| 2026-05-05 05:17 | 43.42339 | 152.20991 | 34798 ft | 632 kts | 47° |
| 2026-05-05 05:17 | 43.48319 | 152.29854 | 34796 ft | 631 kts | 47° |
| 2026-05-05 05:18 | 43.54284 | 152.38724 | 34795 ft | 631 kts | 47° |
| 2026-05-05 05:18 | 43.60242 | 152.47612 | 34793 ft | 631 kts | 47° |
| 2026-05-05 05:19 | 43.66194 | 152.56518 | 34790 ft | 631 kts | 47° |
| 2026-05-05 05:19 | 43.72105 | 152.65392 | 34787 ft | 632 kts | 47° |
| 2026-05-05 05:20 | 43.78099 | 152.74417 | 34786 ft | 633 kts | 47° |
| 2026-05-05 05:20 | 43.84054 | 152.83413 | 34783 ft | 634 kts | 47° |
| 2026-05-05 05:21 | 43.90018 | 152.92451 | 34760 ft | 636 kts | 47° |
| 2026-05-05 05:21 | 43.95949 | 153.01468 | 34757 ft | 637 kts | 48° |
| 2026-05-05 05:22 | 44.01924 | 153.10581 | 34757 ft | 639 kts | 48° |
| 2026-05-05 05:22 | 44.07867 | 153.19674 | 34751 ft | 632 kts | 48° |
| 2026-05-05 05:23 | 44.13774 | 153.28741 | 34749 ft | 634 kts | 48° |
| 2026-05-05 05:23 | 44.19707 | 153.37876 | 34747 ft | 637 kts | 48° |
| 2026-05-05 05:24 | 44.25645 | 153.47053 | 34744 ft | 638 kts | 49° |
| 2026-05-05 05:24 | 44.31589 | 153.56266 | 34737 ft | 639 kts | 49° |
| 2026-05-05 05:25 | 44.37534 | 153.65512 | 34734 ft | 640 kts | 49° |
| 2026-05-05 05:25 | 44.43479 | 153.74787 | 34731 ft | 640 kts | 49° |
| 2026-05-05 05:26 | 44.49412 | 153.84074 | 34728 ft | 640 kts | 49° |
| 2026-05-05 05:26 | 44.55340 | 153.93385 | 34724 ft | 640 kts | 49° |
| 2026-05-05 05:27 | 44.61249 | 154.02697 | 34719 ft | 639 kts | 49° |
| 2026-05-05 05:27 | 44.69193 | 154.15188 | 34718 ft | 641 kts | 49° |
| 2026-05-05 05:28 | 44.75092 | 154.24581 | 34713 ft | 640 kts | 49° |
| 2026-05-05 05:28 | 44.80962 | 154.33969 | 34710 ft | 638 kts | 49° |
| 2026-05-05 05:29 | 44.86818 | 154.43357 | 34672 ft | 637 kts | 50° |
| 2026-05-05 05:29 | 44.92579 | 154.52864 | 34658 ft | 637 kts | 50° |
| 2026-05-05 05:30 | 44.98313 | 154.62388 | 34653 ft | 637 kts | 50° |
| 2026-05-05 05:30 | 45.04044 | 154.71934 | 34651 ft | 636 kts | 50° |
| 2026-05-05 05:31 | 45.09733 | 154.81403 | 34647 ft | 636 kts | 49° |
| 2026-05-05 05:31 | 45.15501 | 154.90894 | 34643 ft | 636 kts | 50° |
| 2026-05-05 05:32 | 45.21273 | 155.00506 | 34640 ft | 636 kts | 50° |
| 2026-05-05 05:32 | 45.26965 | 155.10043 | 34636 ft | 637 kts | 50° |
| 2026-05-05 05:33 | 45.32678 | 155.19654 | 34633 ft | 637 kts | 50° |
| 2026-05-05 05:33 | 45.38389 | 155.29297 | 34607 ft | 638 kts | 51° |
| 2026-05-05 05:34 | 45.44096 | 155.38968 | 34598 ft | 638 kts | 51° |
| 2026-05-05 05:34 | 45.49794 | 155.48657 | 34594 ft | 639 kts | 51° |
| 2026-05-05 05:35 | 45.55497 | 155.58387 | 34590 ft | 639 kts | 51° |
| 2026-05-05 05:35 | 45.61189 | 155.68133 | 34586 ft | 639 kts | 51° |
| 2026-05-05 05:36 | 45.66869 | 155.77891 | 34581 ft | 639 kts | 51° |
| 2026-05-05 05:36 | 45.72543 | 155.87676 | 34578 ft | 639 kts | 51° |
| 2026-05-05 05:37 | 45.78211 | 155.97483 | 34573 ft | 639 kts | 52° |
| 2026-05-05 05:37 | 45.83874 | 156.07316 | 34569 ft | 639 kts | 52° |
| 2026-05-05 05:38 | 45.89521 | 156.17156 | 34565 ft | 639 kts | 52° |
| 2026-05-05 05:38 | 45.95164 | 156.27025 | 34560 ft | 639 kts | 52° |
| 2026-05-05 05:39 | 46.00807 | 156.36927 | 34557 ft | 640 kts | 52° |
| 2026-05-05 05:39 | 46.06433 | 156.46835 | 34552 ft | 639 kts | 52° |
| 2026-05-05 05:40 | 46.12044 | 156.56754 | 34547 ft | 638 kts | 52° |
| 2026-05-05 05:40 | 46.17641 | 156.66681 | 34544 ft | 639 kts | 52° |
| 2026-05-05 05:41 | 46.23239 | 156.76645 | 34539 ft | 639 kts | 52° |
| 2026-05-05 05:41 | 46.28832 | 156.86637 | 34535 ft | 639 kts | 52° |
| 2026-05-05 05:42 | 46.34410 | 156.96638 | 34530 ft | 639 kts | 52° |
| 2026-05-05 05:42 | 46.39991 | 157.06681 | 34525 ft | 640 kts | 52° |
| 2026-05-05 05:43 | 46.45567 | 157.16750 | 34522 ft | 641 kts | 52° |
| 2026-05-05 05:43 | 46.51144 | 157.26858 | 34518 ft | 642 kts | 52° |
| 2026-05-05 05:44 | 46.56714 | 157.36992 | 34513 ft | 642 kts | 52° |
| 2026-05-05 05:44 | 46.62247 | 157.47095 | 34509 ft | 643 kts | 52° |
| 2026-05-05 05:45 | 46.67810 | 157.57288 | 34505 ft | 643 kts | 52° |
| 2026-05-05 05:45 | 46.73366 | 157.67507 | 34482 ft | 643 kts | 53° |
| 2026-05-05 05:46 | 46.78910 | 157.77743 | 34471 ft | 643 kts | 53° |
| 2026-05-05 05:46 | 46.84436 | 157.87982 | 34467 ft | 642 kts | 53° |
| 2026-05-05 05:47 | 46.89947 | 157.98233 | 34462 ft | 640 kts | 53° |
| 2026-05-05 05:47 | 46.95437 | 158.08480 | 34459 ft | 641 kts | 53° |
| 2026-05-05 05:48 | 47.00930 | 158.18773 | 34455 ft | 640 kts | 53° |
| 2026-05-05 05:48 | 47.06397 | 158.29055 | 34452 ft | 639 kts | 53° |
| 2026-05-05 05:49 | 47.11843 | 158.39335 | 34446 ft | 637 kts | 53° |
| 2026-05-05 05:49 | 47.17269 | 158.49616 | 34465 ft | 636 kts | 53° |
| 2026-05-05 05:50 | 47.22671 | 158.59892 | 34543 ft | 635 kts | 54° |
| 2026-05-05 05:50 | 47.28068 | 158.70195 | 34547 ft | 635 kts | 54° |
| 2026-05-05 05:51 | 47.33452 | 158.80513 | 34545 ft | 635 kts | 54° |
| 2026-05-05 05:51 | 47.38830 | 158.90857 | 34543 ft | 635 kts | 54° |
| 2026-05-05 05:52 | 47.44199 | 159.01224 | 34540 ft | 636 kts | 54° |
| 2026-05-05 05:52 | 47.49569 | 159.11632 | 34538 ft | 637 kts | 54° |
| 2026-05-05 05:53 | 47.54895 | 159.21992 | 34536 ft | 637 kts | 54° |
| 2026-05-05 05:53 | 47.60258 | 159.32467 | 34534 ft | 638 kts | 54° |
| 2026-05-05 05:54 | 47.65617 | 159.42972 | 34532 ft | 639 kts | 54° |
| 2026-05-05 05:54 | 47.70977 | 159.53517 | 34530 ft | 640 kts | 55° |
| 2026-05-05 05:55 | 47.76360 | 159.64154 | 34528 ft | 640 kts | 55° |
| 2026-05-05 05:55 | 47.81702 | 159.74749 | 34527 ft | 641 kts | 55° |
| 2026-05-05 05:56 | 47.87042 | 159.85381 | 34525 ft | 641 kts | 55° |
| 2026-05-05 05:56 | 47.92342 | 159.95975 | 34524 ft | 642 kts | 55° |
| 2026-05-05 05:57 | 47.97669 | 160.06662 | 34523 ft | 642 kts | 56° |
| 2026-05-05 05:57 | 48.02982 | 160.17366 | 34522 ft | 642 kts | 56° |
| 2026-05-05 05:58 | 48.08285 | 160.28090 | 34519 ft | 641 kts | 56° |
| 2026-05-05 05:58 | 48.13597 | 160.38766 | 34519 ft | 639 kts | 56° |
| 2026-05-05 05:59 | 48.18838 | 160.49490 | 34518 ft | 637 kts | 56° |
| 2026-05-05 05:59 | 48.24051 | 160.60208 | 34518 ft | 634 kts | 56° |
| 2026-05-05 06:00 | 48.29227 | 160.70898 | 34517 ft | 631 kts | 57° |
| 2026-05-05 06:00 | 48.34193 | 160.81733 | 34776 ft | 628 kts | 58° |
| 2026-05-05 06:01 | 48.36644 | 160.87126 | 35245 ft | 621 kts | 58° |
| 2026-05-05 06:01 | 48.39078 | 160.92481 | 35649 ft | 617 kts | 58° |
| 2026-05-05 06:01 | 48.41489 | 160.97788 | 35960 ft | 614 kts | 58° |
| 2026-05-05 06:01 | 48.43896 | 161.03097 | 36138 ft | 614 kts | 58° |
| 2026-05-05 06:02 | 48.46298 | 161.08399 | 36321 ft | 612 kts | 58° |
| 2026-05-05 06:02 | 48.48710 | 161.13684 | 36449 ft | 612 kts | 57° |
| 2026-05-05 06:02 | 48.53579 | 161.24232 | 36515 ft | 612 kts | 57° |
| 2026-05-05 06:03 | 48.58387 | 161.34802 | 36517 ft | 610 kts | 57° |
| 2026-05-05 06:03 | 48.63162 | 161.45379 | 36505 ft | 609 kts | 57° |
| 2026-05-05 06:04 | 48.67922 | 161.55974 | 36499 ft | 609 kts | 57° |
| 2026-05-05 06:04 | 48.72671 | 161.66588 | 36500 ft | 609 kts | 57° |
| 2026-05-05 06:05 | 48.77411 | 161.77223 | 36500 ft | 609 kts | 58° |
| 2026-05-05 06:05 | 48.82137 | 161.87872 | 36502 ft | 608 kts | 58° |
| 2026-05-05 06:06 | 48.86846 | 161.98521 | 36503 ft | 608 kts | 58° |
| 2026-05-05 06:06 | 48.91544 | 162.09192 | 36505 ft | 607 kts | 58° |
| 2026-05-05 06:07 | 48.96227 | 162.19867 | 36507 ft | 607 kts | 58° |
| 2026-05-05 06:07 | 49.00903 | 162.30570 | 36509 ft | 607 kts | 58° |
| 2026-05-05 06:08 | 49.05566 | 162.41289 | 36511 ft | 607 kts | 58° |
| 2026-05-05 06:08 | 49.10224 | 162.52037 | 36513 ft | 607 kts | 58° |
| 2026-05-05 06:09 | 49.14867 | 162.62792 | 36516 ft | 607 kts | 58° |
| 2026-05-05 06:09 | 49.19472 | 162.73503 | 36518 ft | 607 kts | 58° |
| 2026-05-05 06:10 | 49.24097 | 162.84305 | 36521 ft | 607 kts | 58° |
| 2026-05-05 06:10 | 49.28707 | 162.95117 | 36524 ft | 606 kts | 58° |
| 2026-05-05 06:11 | 49.33310 | 163.05952 | 36528 ft | 607 kts | 58° |
| 2026-05-05 06:11 | 49.37158 | 163.15049 | 36530 ft | 606 kts | 58° |
| 2026-05-05 06:12 | 49.41738 | 163.25912 | 36534 ft | 606 kts | 58° |
| 2026-05-05 06:12 | 49.46312 | 163.36807 | 36538 ft | 606 kts | 58° |
| 2026-05-05 06:13 | 49.50876 | 163.47723 | 36543 ft | 606 kts | 58° |
| 2026-05-05 06:13 | 49.55428 | 163.58646 | 36547 ft | 606 kts | 58° |
| 2026-05-05 06:14 | 49.59970 | 163.69470 | 36551 ft | 606 kts | 58° |
| 2026-05-05 06:14 | 49.64481 | 163.80447 | 36556 ft | 606 kts | 58° |
| 2026-05-05 06:15 | 49.68980 | 163.91446 | 36561 ft | 605 kts | 58° |
| 2026-05-05 06:15 | 49.73476 | 164.02451 | 36568 ft | 605 kts | 58° |
| 2026-05-05 06:16 | 49.77954 | 164.13472 | 36572 ft | 605 kts | 58° |
| 2026-05-05 06:16 | 49.82415 | 164.24520 | 36578 ft | 604 kts | 58° |
| 2026-05-05 06:17 | 49.86860 | 164.35573 | 36584 ft | 604 kts | 58° |
| 2026-05-05 06:17 | 49.91302 | 164.46636 | 36590 ft | 604 kts | 58° |
| 2026-05-05 06:18 | 49.95796 | 164.57659 | 36597 ft | 604 kts | 58° |
| 2026-05-05 06:18 | 50.00273 | 164.68701 | 36604 ft | 603 kts | 58° |
| 2026-05-05 06:19 | 50.04658 | 164.79784 | 36610 ft | 600 kts | 58° |
| 2026-05-05 06:19 | 50.09015 | 164.90845 | 36618 ft | 599 kts | 58° |
| 2026-05-05 06:20 | 50.13365 | 165.01906 | 36626 ft | 598 kts | 58° |
| 2026-05-05 06:20 | 50.17704 | 165.12948 | 36633 ft | 597 kts | 58° |
| 2026-05-05 06:21 | 50.21972 | 165.24076 | 36641 ft | 596 kts | 59° |
| 2026-05-05 06:21 | 50.26202 | 165.35205 | 36650 ft | 596 kts | 59° |
| 2026-05-05 06:22 | 50.30420 | 165.46355 | 36658 ft | 595 kts | 59° |
| 2026-05-05 06:22 | 50.34618 | 165.57506 | 36666 ft | 595 kts | 59° |
| 2026-05-05 06:23 | 50.38888 | 165.68609 | 36675 ft | 595 kts | 58° |
| 2026-05-05 06:23 | 50.43128 | 165.79742 | 36684 ft | 595 kts | 58° |
| 2026-05-05 06:24 | 50.47336 | 165.90918 | 36693 ft | 595 kts | 58° |
| 2026-05-05 06:24 | 50.51524 | 166.02116 | 36703 ft | 595 kts | 58° |
| 2026-05-05 06:25 | 50.55696 | 166.13324 | 36712 ft | 593 kts | 58° |
| 2026-05-05 06:25 | 50.59849 | 166.24534 | 36722 ft | 593 kts | 58° |
| 2026-05-05 06:26 | 50.63990 | 166.35760 | 36732 ft | 593 kts | 58° |
| 2026-05-05 06:26 | 50.68121 | 166.47007 | 36742 ft | 593 kts | 58° |
| 2026-05-05 06:27 | 50.74297 | 166.63916 | 36758 ft | 593 kts | 58° |
| 2026-05-05 06:28 | 50.78397 | 166.75204 | 36765 ft | 592 kts | 58° |
| 2026-05-05 06:28 | 50.82485 | 166.86508 | 36776 ft | 592 kts | 58° |
| 2026-05-05 06:29 | 50.86559 | 166.97824 | 36787 ft | 592 kts | 58° |
| 2026-05-05 06:29 | 50.90619 | 167.09150 | 36799 ft | 591 kts | 58° |
| 2026-05-05 06:30 | 50.94668 | 167.20494 | 36809 ft | 591 kts | 58° |
| 2026-05-05 06:30 | 50.98703 | 167.31852 | 36820 ft | 591 kts | 58° |
| 2026-05-05 06:31 | 51.02725 | 167.43223 | 36831 ft | 590 kts | 58° |
| 2026-05-05 06:31 | 51.06732 | 167.54603 | 36842 ft | 590 kts | 58° |
| 2026-05-05 06:32 | 51.10728 | 167.66004 | 36853 ft | 590 kts | 58° |
| 2026-05-05 06:32 | 51.14710 | 167.77416 | 36864 ft | 589 kts | 58° |
| 2026-05-05 06:33 | 51.18651 | 167.88762 | 36876 ft | 589 kts | 58° |
| 2026-05-05 06:33 | 51.22603 | 168.00189 | 36886 ft | 588 kts | 58° |
| 2026-05-05 06:34 | 51.26544 | 168.11652 | 36895 ft | 592 kts | 57° |
| 2026-05-05 06:34 | 51.30522 | 168.23256 | 36909 ft | 598 kts | 56° |
| 2026-05-05 06:35 | 51.34513 | 168.34950 | 36920 ft | 599 kts | 56° |
| 2026-05-05 06:35 | 51.38486 | 168.46649 | 36930 ft | 598 kts | 56° |
| 2026-05-05 06:36 | 51.42442 | 168.58356 | 36942 ft | 597 kts | 56° |
| 2026-05-05 06:36 | 51.46381 | 168.70068 | 36952 ft | 596 kts | 56° |
| 2026-05-05 06:37 | 51.50299 | 168.81770 | 36963 ft | 595 kts | 56° |
| 2026-05-05 06:37 | 51.54196 | 168.93468 | 36972 ft | 593 kts | 55° |
| 2026-05-05 06:38 | 51.58073 | 169.05158 | 36983 ft | 592 kts | 55° |
| 2026-05-05 06:38 | 51.61929 | 169.16840 | 36993 ft | 591 kts | 55° |
| 2026-05-05 06:39 | 51.65767 | 169.28523 | 37003 ft | 589 kts | 55° |
| 2026-05-05 06:39 | 51.69586 | 169.40199 | 37012 ft | 588 kts | 54° |
| 2026-05-05 06:40 | 51.73381 | 169.51861 | 37022 ft | 587 kts | 54° |
| 2026-05-05 06:40 | 51.77159 | 169.63524 | 37031 ft | 585 kts | 54° |
| 2026-05-05 06:41 | 51.80916 | 169.75176 | 37039 ft | 585 kts | 54° |
| 2026-05-05 06:41 | 51.84659 | 169.86841 | 37047 ft | 584 kts | 54° |
| 2026-05-05 06:42 | 51.88388 | 169.98518 | 37056 ft | 583 kts | 54° |
| 2026-05-05 06:42 | 51.92101 | 170.10200 | 37064 ft | 584 kts | 54° |
| 2026-05-05 06:43 | 51.95804 | 170.21906 | 37071 ft | 584 kts | 54° |
| 2026-05-05 06:43 | 51.99535 | 170.33598 | 37080 ft | 584 kts | 54° |
| 2026-05-05 06:44 | 52.03213 | 170.45328 | 37087 ft | 581 kts | 54° |
| 2026-05-05 06:44 | 52.06830 | 170.57016 | 37093 ft | 578 kts | 54° |
| 2026-05-05 06:45 | 52.10434 | 170.68690 | 37097 ft | 575 kts | 54° |
| 2026-05-05 06:45 | 52.12464 | 170.74179 | 37108 ft | 560 kts | 45° |
| 2026-05-05 06:45 | 52.14778 | 170.79225 | 37111 ft | 554 kts | 41° |
| 2026-05-05 06:46 | 52.19729 | 170.88726 | 37111 ft | 546 kts | 37° |
| 2026-05-05 06:46 | 52.24703 | 170.98011 | 37115 ft | 542 kts | 38° |
| 2026-05-05 06:47 | 52.29605 | 171.07331 | 37120 ft | 541 kts | 38° |
| 2026-05-05 06:47 | 52.34482 | 171.16681 | 37124 ft | 540 kts | 38° |
| 2026-05-05 06:48 | 52.39392 | 171.25925 | 37127 ft | 537 kts | 37° |
| 2026-05-05 06:48 | 52.44252 | 171.35191 | 37132 ft | 535 kts | 37° |
| 2026-05-05 06:49 | 52.49076 | 171.44474 | 37137 ft | 535 kts | 38° |
| 2026-05-05 06:49 | 52.53884 | 171.53777 | 37140 ft | 534 kts | 38° |
| 2026-05-05 06:50 | 52.58678 | 171.63091 | 37144 ft | 533 kts | 38° |
| 2026-05-05 06:50 | 52.63461 | 171.72420 | 37146 ft | 533 kts | 38° |
| 2026-05-05 06:51 | 52.68226 | 171.81749 | 37149 ft | 531 kts | 38° |
| 2026-05-05 06:51 | 52.72977 | 171.91085 | 37152 ft | 531 kts | 38° |
| 2026-05-05 06:52 | 52.77719 | 172.00439 | 37154 ft | 531 kts | 38° |
| 2026-05-05 06:52 | 52.81643 | 172.08205 | 37157 ft | 526 kts | 38° |
| 2026-05-05 06:53 | 52.86301 | 172.17454 | 37158 ft | 521 kts | 39° |
| 2026-05-05 06:53 | 52.90931 | 172.26683 | 37161 ft | 521 kts | 39° |
| 2026-05-05 06:54 | 52.95561 | 172.35947 | 37162 ft | 522 kts | 39° |
| 2026-05-05 06:54 | 53.00171 | 172.45205 | 37163 ft | 520 kts | 39° |
| 2026-05-05 06:55 | 53.04764 | 172.54461 | 37165 ft | 519 kts | 40° |
| 2026-05-05 06:55 | 53.09350 | 172.63739 | 37166 ft | 519 kts | 40° |
| 2026-05-05 06:56 | 53.13921 | 172.73019 | 37167 ft | 517 kts | 40° |
| 2026-05-05 06:56 | 53.18465 | 172.82280 | 37168 ft | 516 kts | 40° |
| 2026-05-05 06:57 | 53.23002 | 172.91561 | 37169 ft | 516 kts | 41° |
| 2026-05-05 06:57 | 53.27533 | 173.00864 | 37170 ft | 516 kts | 41° |
| 2026-05-05 06:58 | 53.32056 | 173.10185 | 37170 ft | 516 kts | 41° |
| 2026-05-05 06:58 | 53.36596 | 173.19453 | 37170 ft | 515 kts | 41° |
| 2026-05-05 06:59 | 53.41092 | 173.28793 | 37170 ft | 514 kts | 42° |
| 2026-05-05 06:59 | 53.45559 | 173.38156 | 37170 ft | 514 kts | 43° |
| 2026-05-05 07:00 | 53.50022 | 173.47536 | 37170 ft | 513 kts | 43° |
| 2026-05-05 07:00 | 53.54390 | 173.57030 | 37171 ft | 515 kts | 47° |
| 2026-05-05 07:01 | 53.58309 | 173.67164 | 37170 ft | 518 kts | 51° |
| 2026-05-05 07:01 | 53.62115 | 173.77480 | 37169 ft | 518 kts | 51° |
| 2026-05-05 07:02 | 53.65944 | 173.87782 | 37169 ft | 518 kts | 51° |
| 2026-05-05 07:02 | 53.69772 | 173.98074 | 37168 ft | 518 kts | 52° |
| 2026-05-05 07:03 | 53.73627 | 174.08319 | 37167 ft | 516 kts | 51° |
| 2026-05-05 07:03 | 53.77513 | 174.18520 | 37167 ft | 516 kts | 51° |
| 2026-05-05 07:04 | 53.81357 | 174.28772 | 37157 ft | 516 kts | 51° |
| 2026-05-05 07:04 | 53.85177 | 174.39046 | 37156 ft | 516 kts | 52° |
| 2026-05-05 07:05 | 53.88961 | 174.49280 | 37155 ft | 516 kts | 52° |
| 2026-05-05 07:05 | 53.92759 | 174.59602 | 37154 ft | 516 kts | 52° |
| 2026-05-05 07:06 | 53.96543 | 174.69931 | 37153 ft | 515 kts | 52° |
| 2026-05-05 07:06 | 54.00311 | 174.80258 | 37153 ft | 514 kts | 52° |
| 2026-05-05 07:07 | 54.04063 | 174.90577 | 37149 ft | 511 kts | 53° |
| 2026-05-05 07:07 | 54.07780 | 175.00856 | 37149 ft | 509 kts | 53° |
| 2026-05-05 07:08 | 54.11483 | 175.11134 | 37147 ft | 509 kts | 53° |
| 2026-05-05 07:08 | 54.15174 | 175.21423 | 37145 ft | 509 kts | 53° |
| 2026-05-05 07:09 | 54.18852 | 175.31716 | 37144 ft | 508 kts | 53° |
| 2026-05-05 07:09 | 54.22515 | 175.42009 | 37143 ft | 507 kts | 54° |
| 2026-05-05 07:10 | 54.26165 | 175.52310 | 37141 ft | 506 kts | 54° |
| 2026-05-05 07:10 | 54.29828 | 175.62691 | 37140 ft | 506 kts | 54° |
| 2026-05-05 07:11 | 54.33429 | 175.72939 | 37138 ft | 506 kts | 54° |
| 2026-05-05 07:11 | 54.37048 | 175.83282 | 37136 ft | 506 kts | 54° |
| 2026-05-05 07:12 | 54.40659 | 175.93646 | 37134 ft | 506 kts | 54° |
| 2026-05-05 07:12 | 54.44263 | 176.04031 | 37134 ft | 506 kts | 54° |
| 2026-05-05 07:13 | 54.47851 | 176.14415 | 37131 ft | 504 kts | 54° |
| 2026-05-05 07:13 | 54.51420 | 176.24789 | 37143 ft | 504 kts | 54° |
| 2026-05-05 07:14 | 54.54979 | 176.35176 | 37153 ft | 503 kts | 54° |
| 2026-05-05 07:14 | 54.58520 | 176.45556 | 37152 ft | 502 kts | 55° |
| 2026-05-05 07:15 | 54.62052 | 176.55954 | 37151 ft | 502 kts | 55° |
| 2026-05-05 07:15 | 54.65568 | 176.66346 | 37150 ft | 501 kts | 55° |
| 2026-05-05 07:16 | 54.69066 | 176.76733 | 37149 ft | 500 kts | 55° |
| 2026-05-05 07:16 | 54.72555 | 176.87136 | 37149 ft | 499 kts | 55° |
| 2026-05-05 07:17 | 54.76027 | 176.97530 | 37147 ft | 499 kts | 55° |
| 2026-05-05 07:17 | 54.79489 | 177.07941 | 37146 ft | 498 kts | 56° |
| 2026-05-05 07:18 | 54.82930 | 177.18335 | 37146 ft | 497 kts | 56° |
| 2026-05-05 07:18 | 54.86364 | 177.28749 | 37145 ft | 497 kts | 56° |
| 2026-05-05 07:19 | 54.89783 | 177.39166 | 37144 ft | 496 kts | 56° |
| 2026-05-05 07:19 | 54.93192 | 177.49594 | 37143 ft | 496 kts | 56° |
| 2026-05-05 07:20 | 54.96592 | 177.60040 | 37146 ft | 496 kts | 56° |
| 2026-05-05 07:20 | 54.99984 | 177.70509 | 37163 ft | 496 kts | 56° |
| 2026-05-05 07:21 | 55.03362 | 177.80977 | 37164 ft | 496 kts | 56° |
| 2026-05-05 07:21 | 55.06731 | 177.91465 | 37163 ft | 496 kts | 56° |
| 2026-05-05 07:22 | 55.10094 | 178.01979 | 37163 ft | 496 kts | 56° |
| 2026-05-05 07:22 | 55.13438 | 178.12478 | 37163 ft | 494 kts | 57° |
| 2026-05-05 07:23 | 55.16767 | 178.22972 | 37162 ft | 494 kts | 56° |
| 2026-05-05 07:23 | 55.20117 | 178.33369 | 37162 ft | 494 kts | 57° |
| 2026-05-05 07:24 | 55.23419 | 178.43918 | 37162 ft | 494 kts | 57° |
| 2026-05-05 07:24 | 55.26705 | 178.54502 | 37162 ft | 494 kts | 57° |
| 2026-05-05 07:25 | 55.29983 | 178.65092 | 37161 ft | 494 kts | 57° |
| 2026-05-05 07:25 | 55.33261 | 178.75686 | 37161 ft | 494 kts | 57° |
| 2026-05-05 07:26 | 55.36538 | 178.86292 | 37160 ft | 494 kts | 57° |
| 2026-05-05 07:26 | 55.39792 | 178.96918 | 37160 ft | 493 kts | 57° |
| 2026-05-05 07:27 | 55.43030 | 179.07562 | 37160 ft | 493 kts | 58° |
| 2026-05-05 07:27 | 55.46258 | 179.18229 | 37159 ft | 493 kts | 58° |
| 2026-05-05 07:28 | 55.49492 | 179.28887 | 37159 ft | 493 kts | 57° |
| 2026-05-05 07:28 | 55.52794 | 179.39472 | 37159 ft | 492 kts | 57° |
| 2026-05-05 07:29 | 55.56042 | 179.50094 | 37159 ft | 492 kts | 57° |
| 2026-05-05 07:29 | 55.59269 | 179.60776 | 37159 ft | 492 kts | 58° |
| 2026-05-05 07:30 | 55.62476 | 179.71464 | 37158 ft | 492 kts | 58° |
| 2026-05-05 07:30 | 55.67267 | 179.87539 | 37157 ft | 492 kts | 58° |
| 2026-05-05 07:31 | 55.70448 | 179.98276 | 37163 ft | 492 kts | 58° |
| 2026-05-05 07:31 | 55.73616 | -179.90977 | 37215 ft | 491 kts | 58° |
| 2026-05-05 07:32 | 55.76778 | -179.80204 | 37228 ft | 492 kts | 58° |
| 2026-05-05 07:32 | 55.79935 | -179.69399 | 37228 ft | 492 kts | 58° |
| 2026-05-05 07:33 | 55.83056 | -179.58666 | 37227 ft | 492 kts | 58° |
| 2026-05-05 07:33 | 55.86189 | -179.47841 | 37226 ft | 491 kts | 59° |
| 2026-05-05 07:34 | 55.89308 | -179.37016 | 37227 ft | 491 kts | 59° |
| 2026-05-05 07:34 | 55.92416 | -179.26177 | 37227 ft | 491 kts | 59° |
| 2026-05-05 07:35 | 55.95513 | -179.15329 | 37226 ft | 490 kts | 59° |
| 2026-05-05 07:35 | 55.98596 | -179.04477 | 37226 ft | 490 kts | 59° |
| 2026-05-05 07:36 | 56.01665 | -178.93624 | 37227 ft | 489 kts | 59° |
| 2026-05-05 07:36 | 56.04726 | -178.82747 | 37225 ft | 489 kts | 59° |
| 2026-05-05 07:37 | 56.07261 | -178.73701 | 37225 ft | 489 kts | 59° |
| 2026-05-05 07:37 | 56.10301 | -178.62805 | 37225 ft | 489 kts | 59° |
| 2026-05-05 07:38 | 56.13327 | -178.51909 | 37224 ft | 488 kts | 59° |
| 2026-05-05 07:38 | 56.16342 | -178.40998 | 37225 ft | 488 kts | 60° |
| 2026-05-05 07:39 | 56.19345 | -178.30081 | 37223 ft | 488 kts | 60° |
| 2026-05-05 07:39 | 56.22336 | -178.19156 | 37223 ft | 487 kts | 60° |
| 2026-05-05 07:40 | 56.25320 | -178.08206 | 37222 ft | 488 kts | 60° |
| 2026-05-05 07:40 | 56.28293 | -177.97241 | 37222 ft | 488 kts | 60° |
| 2026-05-05 07:41 | 56.31255 | -177.86262 | 37221 ft | 487 kts | 60° |
| 2026-05-05 07:41 | 56.34206 | -177.75274 | 37221 ft | 487 kts | 60° |
| 2026-05-05 07:42 | 56.37148 | -177.64267 | 37220 ft | 487 kts | 60° |
| 2026-05-05 07:42 | 56.40084 | -177.53228 | 37221 ft | 488 kts | 60° |
| 2026-05-05 07:43 | 56.43010 | -177.42171 | 37219 ft | 488 kts | 60° |
| 2026-05-05 07:43 | 56.45929 | -177.31088 | 37214 ft | 488 kts | 61° |
| 2026-05-05 07:44 | 56.48838 | -177.19985 | 37212 ft | 488 kts | 61° |
| 2026-05-05 07:44 | 56.51735 | -177.08876 | 37211 ft | 488 kts | 61° |
| 2026-05-05 07:45 | 56.54624 | -176.97743 | 37210 ft | 488 kts | 61° |
| 2026-05-05 07:45 | 56.57503 | -176.86593 | 37210 ft | 488 kts | 61° |
| 2026-05-05 07:46 | 56.60373 | -176.75422 | 37209 ft | 488 kts | 61° |
| 2026-05-05 07:46 | 56.63233 | -176.64234 | 37208 ft | 488 kts | 62° |
| 2026-05-05 07:47 | 56.66083 | -176.53030 | 37209 ft | 489 kts | 62° |
| 2026-05-05 07:47 | 56.68925 | -176.41805 | 37209 ft | 488 kts | 61° |
| 2026-05-05 07:48 | 56.71815 | -176.30610 | 37209 ft | 488 kts | 62° |
| 2026-05-05 07:48 | 56.74620 | -176.19360 | 37207 ft | 488 kts | 62° |
| 2026-05-05 07:49 | 56.77388 | -176.08144 | 37206 ft | 488 kts | 62° |
| 2026-05-05 07:49 | 56.80170 | -175.96836 | 37202 ft | 488 kts | 62° |
| 2026-05-05 07:50 | 56.82947 | -175.85532 | 37201 ft | 488 kts | 62° |
| 2026-05-05 07:50 | 56.85700 | -175.74191 | 37201 ft | 488 kts | 63° |
| 2026-05-05 07:51 | 56.88431 | -175.62828 | 37200 ft | 488 kts | 63° |
| 2026-05-05 07:51 | 56.91151 | -175.51440 | 37199 ft | 489 kts | 63° |
| 2026-05-05 07:52 | 56.93862 | -175.40028 | 37198 ft | 489 kts | 63° |
| 2026-05-05 07:52 | 56.96574 | -175.28597 | 37197 ft | 488 kts | 62° |
| 2026-05-05 07:53 | 56.99366 | -175.17253 | 37197 ft | 488 kts | 62° |
| 2026-05-05 07:53 | 57.02102 | -175.05839 | 37191 ft | 489 kts | 63° |
| 2026-05-05 07:54 | 57.04809 | -174.94387 | 37182 ft | 489 kts | 63° |
| 2026-05-05 07:54 | 57.07500 | -174.82915 | 37182 ft | 489 kts | 63° |
| 2026-05-05 07:55 | 57.10179 | -174.71423 | 37181 ft | 489 kts | 63° |
| 2026-05-05 07:55 | 57.12846 | -174.59921 | 37181 ft | 489 kts | 63° |
| 2026-05-05 07:56 | 57.15502 | -174.48401 | 37172 ft | 489 kts | 63° |
| 2026-05-05 07:56 | 57.18150 | -174.36854 | 37169 ft | 489 kts | 64° |
| 2026-05-05 07:57 | 57.20785 | -174.25301 | 37169 ft | 489 kts | 64° |
| 2026-05-05 07:57 | 57.23472 | -174.13772 | 37173 ft | 489 kts | 63° |
| 2026-05-05 07:58 | 57.26081 | -174.02173 | 37172 ft | 489 kts | 64° |
| 2026-05-05 07:58 | 57.28664 | -173.90535 | 37172 ft | 489 kts | 64° |
| 2026-05-05 07:59 | 57.31238 | -173.78890 | 37172 ft | 489 kts | 64° |
| 2026-05-05 07:59 | 57.33814 | -173.67231 | 37172 ft | 489 kts | 64° |
| 2026-05-05 08:00 | 57.36440 | -173.55606 | 37172 ft | 489 kts | 64° |
| 2026-05-05 08:00 | 57.39050 | -173.43964 | 37172 ft | 489 kts | 64° |
| 2026-05-05 08:01 | 57.41639 | -173.32305 | 37171 ft | 489 kts | 64° |
| 2026-05-05 08:01 | 57.44201 | -173.20694 | 37172 ft | 489 kts | 64° |
| 2026-05-05 08:02 | 57.46785 | -173.08920 | 37171 ft | 489 kts | 64° |
| 2026-05-05 08:02 | 57.49451 | -172.97292 | 37172 ft | 489 kts | 64° |
| 2026-05-05 08:03 | 57.52063 | -172.85621 | 37170 ft | 489 kts | 64° |
| 2026-05-05 08:03 | 57.54639 | -172.73912 | 37180 ft | 489 kts | 65° |
| 2026-05-05 08:04 | 57.57181 | -172.62251 | 37189 ft | 489 kts | 65° |
| 2026-05-05 08:04 | 57.59745 | -172.50413 | 37189 ft | 489 kts | 65° |
| 2026-05-05 08:05 | 57.62279 | -172.38634 | 37189 ft | 489 kts | 65° |
| 2026-05-05 08:05 | 57.64802 | -172.26841 | 37191 ft | 489 kts | 65° |
| 2026-05-05 08:06 | 57.67318 | -172.15017 | 37189 ft | 490 kts | 65° |
| 2026-05-05 08:06 | 57.69820 | -172.03184 | 37189 ft | 490 kts | 66° |
| 2026-05-05 08:07 | 57.72299 | -171.91396 | 37189 ft | 490 kts | 66° |
| 2026-05-05 08:07 | 57.74779 | -171.79532 | 37189 ft | 490 kts | 66° |
| 2026-05-05 08:08 | 57.77249 | -171.67645 | 37184 ft | 490 kts | 66° |
| 2026-05-05 08:08 | 57.79710 | -171.55736 | 37181 ft | 490 kts | 66° |
| 2026-05-05 08:09 | 57.82157 | -171.43819 | 37183 ft | 490 kts | 66° |
| 2026-05-05 08:09 | 57.84600 | -171.31898 | 37182 ft | 489 kts | 66° |
| 2026-05-05 08:10 | 57.87083 | -171.20014 | 37182 ft | 489 kts | 66° |
| 2026-05-05 08:10 | 57.89476 | -171.08054 | 37182 ft | 489 kts | 67° |
| 2026-05-05 08:11 | 57.91850 | -170.96074 | 37183 ft | 489 kts | 67° |
| 2026-05-05 08:11 | 57.94218 | -170.84089 | 37181 ft | 488 kts | 67° |
| 2026-05-05 08:12 | 57.96604 | -170.72121 | 37181 ft | 488 kts | 66° |
| 2026-05-05 08:12 | 57.99157 | -170.60281 | 37183 ft | 487 kts | 65° |
| 2026-05-05 08:13 | 58.01688 | -170.48419 | 37180 ft | 488 kts | 66° |
| 2026-05-05 08:13 | 58.04194 | -170.36516 | 37179 ft | 488 kts | 66° |
| 2026-05-05 08:14 | 58.06682 | -170.24594 | 37179 ft | 488 kts | 66° |
| 2026-05-05 08:14 | 58.09178 | -170.12683 | 37175 ft | 487 kts | 65° |
| 2026-05-05 08:15 | 58.11755 | -170.00843 | 37174 ft | 487 kts | 66° |
| 2026-05-05 08:15 | 58.14273 | -169.88937 | 37172 ft | 487 kts | 66° |
| 2026-05-05 08:16 | 58.16758 | -169.77001 | 37171 ft | 487 kts | 66° |
| 2026-05-05 08:16 | 58.19225 | -169.65037 | 37170 ft | 488 kts | 66° |
| 2026-05-05 08:17 | 58.21681 | -169.53044 | 37164 ft | 488 kts | 66° |
| 2026-05-05 08:17 | 58.24127 | -169.41023 | 37162 ft | 489 kts | 67° |
| 2026-05-05 08:18 | 58.26565 | -169.28967 | 37159 ft | 489 kts | 67° |
| 2026-05-05 08:18 | 58.28995 | -169.16878 | 37157 ft | 490 kts | 67° |
| 2026-05-05 08:19 | 58.31415 | -169.04765 | 37154 ft | 490 kts | 67° |
| 2026-05-05 08:19 | 58.33824 | -168.92630 | 37153 ft | 490 kts | 68° |
| 2026-05-05 08:20 | 58.36224 | -168.80471 | 37148 ft | 491 kts | 68° |
| 2026-05-05 08:20 | 58.38613 | -168.68291 | 37144 ft | 491 kts | 68° |
| 2026-05-05 08:21 | 58.40589 | -168.58155 | 37139 ft | 491 kts | 68° |
| 2026-05-05 08:21 | 58.42959 | -168.45936 | 37138 ft | 491 kts | 68° |
| 2026-05-05 08:22 | 58.45312 | -168.33725 | 37134 ft | 491 kts | 68° |
| 2026-05-05 08:22 | 58.47657 | -168.21477 | 37112 ft | 491 kts | 68° |
| 2026-05-05 08:23 | 58.49988 | -168.09225 | 37107 ft | 490 kts | 69° |
| 2026-05-05 08:23 | 58.52309 | -167.96951 | 37104 ft | 490 kts | 69° |
| 2026-05-05 08:24 | 58.54602 | -167.84748 | 37102 ft | 491 kts | 69° |
| 2026-05-05 08:24 | 58.56902 | -167.72429 | 37099 ft | 491 kts | 69° |
| 2026-05-05 08:25 | 58.59191 | -167.60086 | 37097 ft | 492 kts | 69° |
| 2026-05-05 08:25 | 58.61536 | -167.47765 | 37095 ft | 492 kts | 69° |
| 2026-05-05 08:26 | 58.63801 | -167.35369 | 37092 ft | 493 kts | 70° |
| 2026-05-05 08:26 | 58.66037 | -167.22913 | 37089 ft | 493 kts | 70° |
| 2026-05-05 08:27 | 58.68263 | -167.10450 | 37087 ft | 493 kts | 70° |
| 2026-05-05 08:27 | 58.70493 | -166.97957 | 37085 ft | 494 kts | 70° |
| 2026-05-05 08:28 | 58.72744 | -166.85476 | 37083 ft | 494 kts | 70° |
| 2026-05-05 08:28 | 58.74979 | -166.72961 | 37050 ft | 495 kts | 70° |
| 2026-05-05 08:29 | 58.77202 | -166.60425 | 37010 ft | 494 kts | 70° |
| 2026-05-05 08:30 | 58.80658 | -166.41712 | 37003 ft | 494 kts | 70° |
| 2026-05-05 08:30 | 58.82870 | -166.29155 | 37000 ft | 494 kts | 70° |
| 2026-05-05 08:31 | 58.85045 | -166.16553 | 36996 ft | 495 kts | 70° |
| 2026-05-05 08:31 | 58.87215 | -166.03937 | 36993 ft | 495 kts | 70° |
| 2026-05-05 08:32 | 58.89387 | -165.91305 | 36990 ft | 495 kts | 71° |
| 2026-05-05 08:32 | 58.91550 | -165.78673 | 36988 ft | 495 kts | 71° |
| 2026-05-05 08:33 | 58.93690 | -165.65999 | 36985 ft | 495 kts | 71° |
| 2026-05-05 08:33 | 58.95814 | -165.53299 | 36982 ft | 496 kts | 71° |
| 2026-05-05 08:34 | 58.97923 | -165.40581 | 36979 ft | 496 kts | 71° |
| 2026-05-05 08:34 | 59.00046 | -165.27860 | 36976 ft | 496 kts | 70° |
| 2026-05-05 08:35 | 59.02248 | -165.15268 | 36951 ft | 496 kts | 71° |
| 2026-05-05 08:35 | 59.04396 | -165.02538 | 36937 ft | 496 kts | 71° |
| 2026-05-05 08:36 | 59.06508 | -164.89783 | 36934 ft | 496 kts | 72° |
| 2026-05-05 08:36 | 59.08598 | -164.77015 | 36928 ft | 496 kts | 72° |
| 2026-05-05 08:37 | 59.10673 | -164.64228 | 36925 ft | 496 kts | 72° |
| 2026-05-05 08:37 | 59.12737 | -164.51416 | 36923 ft | 496 kts | 72° |
| 2026-05-05 08:38 | 59.14789 | -164.38580 | 36922 ft | 496 kts | 72° |
| 2026-05-05 08:38 | 59.16827 | -164.25731 | 36920 ft | 496 kts | 72° |
| 2026-05-05 08:39 | 59.18853 | -164.12867 | 36917 ft | 496 kts | 72° |
| 2026-05-05 08:39 | 59.20868 | -163.99981 | 36915 ft | 497 kts | 73° |
| 2026-05-05 08:40 | 59.22870 | -163.87076 | 36881 ft | 497 kts | 73° |
| 2026-05-05 08:40 | 59.24858 | -163.74164 | 36878 ft | 497 kts | 73° |
| 2026-05-05 08:41 | 59.26837 | -163.61218 | 36875 ft | 497 kts | 73° |
| 2026-05-05 08:41 | 59.28786 | -163.48365 | 36871 ft | 496 kts | 73° |
| 2026-05-05 08:42 | 59.30732 | -163.35431 | 36866 ft | 496 kts | 73° |
| 2026-05-05 08:42 | 59.32665 | -163.22488 | 36861 ft | 496 kts | 73° |
| 2026-05-05 08:43 | 59.34588 | -163.09513 | 36855 ft | 495 kts | 74° |
| 2026-05-05 08:43 | 59.36492 | -162.96563 | 36849 ft | 494 kts | 74° |
| 2026-05-05 08:44 | 59.38452 | -162.83634 | 36843 ft | 495 kts | 73° |
| 2026-05-05 08:44 | 59.40329 | -162.70656 | 36826 ft | 495 kts | 75° |
| 2026-05-05 08:45 | 59.42166 | -162.57644 | 36816 ft | 494 kts | 75° |
| 2026-05-05 08:45 | 59.43994 | -162.44620 | 36812 ft | 495 kts | 75° |
| 2026-05-05 08:46 | 59.45826 | -162.31598 | 36809 ft | 495 kts | 74° |
| 2026-05-05 08:46 | 59.47928 | -162.18699 | 36808 ft | 495 kts | 72° |
| 2026-05-05 08:47 | 59.50102 | -162.05843 | 36807 ft | 495 kts | 72° |
| 2026-05-05 08:47 | 59.52230 | -161.92958 | 36806 ft | 495 kts | 72° |
| 2026-05-05 08:48 | 59.54330 | -161.80041 | 36805 ft | 495 kts | 73° |
| 2026-05-05 08:48 | 59.56411 | -161.67120 | 36799 ft | 495 kts | 72° |
| 2026-05-05 08:49 | 59.58600 | -161.54358 | 36798 ft | 494 kts | 72° |
| 2026-05-05 08:49 | 59.60749 | -161.41490 | 36795 ft | 493 kts | 72° |
| 2026-05-05 08:50 | 59.62849 | -161.28592 | 36791 ft | 493 kts | 73° |
| 2026-05-05 08:50 | 59.64923 | -161.15682 | 36786 ft | 492 kts | 73° |
| 2026-05-05 08:51 | 59.66975 | -161.02787 | 36780 ft | 491 kts | 73° |
| 2026-05-05 08:51 | 59.69010 | -160.89886 | 36774 ft | 490 kts | 73° |
| 2026-05-05 08:52 | 59.71028 | -160.76994 | 36769 ft | 490 kts | 73° |
| 2026-05-05 08:52 | 59.73030 | -160.64103 | 36766 ft | 489 kts | 73° |
| 2026-05-05 08:53 | 59.75019 | -160.51203 | 36762 ft | 489 kts | 74° |
| 2026-05-05 08:53 | 59.76991 | -160.38314 | 36761 ft | 488 kts | 74° |
| 2026-05-05 08:54 | 59.78952 | -160.25402 | 36706 ft | 488 kts | 74° |
| 2026-05-05 08:54 | 59.80896 | -160.12499 | 36696 ft | 487 kts | 75° |
| 2026-05-05 08:55 | 59.82814 | -159.99672 | 36695 ft | 487 kts | 75° |
| 2026-05-05 08:55 | 59.84732 | -159.86752 | 36694 ft | 487 kts | 75° |
| 2026-05-05 08:56 | 59.86637 | -159.73809 | 36695 ft | 487 kts | 75° |
| 2026-05-05 08:56 | 59.88530 | -159.60850 | 36694 ft | 487 kts | 75° |
| 2026-05-05 08:57 | 59.90412 | -159.47871 | 36687 ft | 487 kts | 75° |
| 2026-05-05 08:57 | 59.92278 | -159.34891 | 36684 ft | 487 kts | 75° |
| 2026-05-05 08:58 | 59.94133 | -159.21890 | 36684 ft | 488 kts | 75° |
| 2026-05-05 08:58 | 59.95975 | -159.08872 | 36684 ft | 487 kts | 76° |
| 2026-05-05 08:59 | 59.97804 | -158.95842 | 36665 ft | 488 kts | 76° |
| 2026-05-05 08:59 | 59.99622 | -158.82782 | 36663 ft | 488 kts | 76° |
| 2026-05-05 09:00 | 60.01427 | -158.69718 | 36664 ft | 489 kts | 76° |
| 2026-05-05 09:00 | 60.03212 | -158.56683 | 36665 ft | 489 kts | 77° |
| 2026-05-05 09:01 | 60.04995 | -158.43551 | 36662 ft | 489 kts | 77° |
| 2026-05-05 09:01 | 60.06764 | -158.30415 | 36660 ft | 488 kts | 77° |
| 2026-05-05 09:02 | 60.08517 | -158.17289 | 36660 ft | 488 kts | 77° |
| 2026-05-05 09:02 | 60.10257 | -158.04150 | 36661 ft | 488 kts | 77° |
| 2026-05-05 09:03 | 60.11985 | -157.90992 | 36661 ft | 488 kts | 77° |
| 2026-05-05 09:03 | 60.13697 | -157.77834 | 36660 ft | 488 kts | 77° |
| 2026-05-05 09:04 | 60.15398 | -157.64652 | 36666 ft | 488 kts | 77° |
| 2026-05-05 09:04 | 60.17085 | -157.51462 | 36667 ft | 488 kts | 78° |
| 2026-05-05 09:05 | 60.18760 | -157.38249 | 36666 ft | 488 kts | 78° |
| 2026-05-05 09:05 | 60.20411 | -157.25113 | 36657 ft | 488 kts | 78° |
| 2026-05-05 09:06 | 60.22058 | -157.11888 | 36657 ft | 487 kts | 78° |
| 2026-05-05 09:06 | 60.23692 | -156.98653 | 36641 ft | 487 kts | 79° |
| 2026-05-05 09:07 | 60.25311 | -156.85413 | 36640 ft | 487 kts | 79° |
| 2026-05-05 09:07 | 60.26917 | -156.72162 | 36639 ft | 487 kts | 79° |
| 2026-05-05 09:08 | 60.28507 | -156.58922 | 36639 ft | 486 kts | 79° |
| 2026-05-05 09:08 | 60.30084 | -156.45668 | 36636 ft | 486 kts | 79° |
| 2026-05-05 09:09 | 60.31645 | -156.32420 | 36635 ft | 485 kts | 79° |
| 2026-05-05 09:09 | 60.33192 | -156.19174 | 36634 ft | 485 kts | 80° |
| 2026-05-05 09:10 | 60.34725 | -156.05918 | 36633 ft | 485 kts | 80° |
| 2026-05-05 09:10 | 60.36245 | -155.92652 | 36631 ft | 485 kts | 80° |
| 2026-05-05 09:11 | 60.37740 | -155.79474 | 36621 ft | 484 kts | 80° |
| 2026-05-05 09:11 | 60.39232 | -155.66201 | 36620 ft | 484 kts | 80° |
| 2026-05-05 09:12 | 60.40708 | -155.52928 | 36616 ft | 484 kts | 81° |
| 2026-05-05 09:12 | 60.42173 | -155.39642 | 36611 ft | 483 kts | 81° |
| 2026-05-05 09:13 | 60.43410 | -155.28526 | 36610 ft | 483 kts | 80° |
| 2026-05-05 09:13 | 60.44910 | -155.15263 | 36611 ft | 483 kts | 82° |
| 2026-05-05 09:14 | 60.46309 | -155.01957 | 36611 ft | 482 kts | 82° |
| 2026-05-05 09:14 | 60.47677 | -154.88756 | 36611 ft | 482 kts | 82° |
| 2026-05-05 09:15 | 60.49049 | -154.75465 | 36610 ft | 481 kts | 82° |
| 2026-05-05 09:15 | 60.50508 | -154.62213 | 36611 ft | 482 kts | 79° |
| 2026-05-05 09:16 | 60.52273 | -154.49073 | 36610 ft | 483 kts | 79° |
| 2026-05-05 09:16 | 60.54016 | -154.35907 | 36611 ft | 483 kts | 79° |
| 2026-05-05 09:17 | 60.55723 | -154.22723 | 36612 ft | 482 kts | 79° |
| 2026-05-05 09:17 | 60.58274 | -154.02727 | 34687 ft | 485 kts | 80° |
| 2026-05-05 09:18 | 60.59139 | -153.96147 | 34188 ft | 478 kts | 79° |
| 2026-05-05 09:18 | 60.60031 | -153.89665 | 33604 ft | 472 kts | 79° |
| 2026-05-05 09:18 | 60.60886 | -153.83258 | 33045 ft | 467 kts | 80° |
| 2026-05-05 09:18 | 60.61712 | -153.76910 | 32496 ft | 461 kts | 80° |
| 2026-05-05 09:19 | 60.62518 | -153.70622 | 31964 ft | 455 kts | 80° |
| 2026-05-05 09:19 | 60.63305 | -153.64418 | 31441 ft | 450 kts | 81° |
| 2026-05-05 09:19 | 60.64079 | -153.58286 | 30924 ft | 445 kts | 81° |
| 2026-05-05 09:19 | 60.64839 | -153.52223 | 30412 ft | 439 kts | 81° |
| 2026-05-05 09:20 | 60.65589 | -153.46213 | 29909 ft | 434 kts | 81° |
| 2026-05-05 09:20 | 60.66332 | -153.40281 | 29395 ft | 430 kts | 81° |
| 2026-05-05 09:20 | 60.67110 | -153.34432 | 28891 ft | 425 kts | 81° |
| 2026-05-05 09:20 | 60.67854 | -153.28625 | 28383 ft | 420 kts | 81° |
| 2026-05-05 09:21 | 60.68560 | -153.22874 | 27880 ft | 416 kts | 82° |
| 2026-05-05 09:21 | 60.69247 | -153.17173 | 27377 ft | 412 kts | 82° |
| 2026-05-05 09:21 | 60.69913 | -153.11595 | 26897 ft | 408 kts | 82° |
| 2026-05-05 09:21 | 60.70579 | -153.05993 | 26406 ft | 404 kts | 82° |
| 2026-05-05 09:22 | 60.71236 | -153.00447 | 25918 ft | 400 kts | 82° |
| 2026-05-05 09:22 | 60.71895 | -152.94872 | 25426 ft | 397 kts | 82° |
| 2026-05-05 09:22 | 60.72530 | -152.89495 | 24944 ft | 393 kts | 82° |
| 2026-05-05 09:22 | 60.73170 | -152.84084 | 24461 ft | 390 kts | 82° |
| 2026-05-05 09:23 | 60.73806 | -152.78714 | 23983 ft | 387 kts | 82° |
| 2026-05-05 09:23 | 60.74445 | -152.73394 | 23509 ft | 384 kts | 82° |
| 2026-05-05 09:23 | 60.75110 | -152.68133 | 23030 ft | 381 kts | 82° |
| 2026-05-05 09:23 | 60.75744 | -152.62894 | 22553 ft | 378 kts | 82° |
| 2026-05-05 09:24 | 60.76353 | -152.57694 | 22077 ft | 375 kts | 83° |
| 2026-05-05 09:24 | 60.76948 | -152.52527 | 21603 ft | 372 kts | 83° |
| 2026-05-05 09:24 | 60.77534 | -152.47397 | 21130 ft | 369 kts | 83° |
| 2026-05-05 09:24 | 60.78114 | -152.42296 | 20657 ft | 367 kts | 83° |
| 2026-05-05 09:25 | 60.78688 | -152.37234 | 20189 ft | 364 kts | 83° |
| 2026-05-05 09:25 | 60.79257 | -152.32203 | 19725 ft | 361 kts | 83° |
| 2026-05-05 09:25 | 60.79822 | -152.27209 | 19257 ft | 359 kts | 84° |
| 2026-05-05 09:25 | 60.80386 | -152.22240 | 18794 ft | 357 kts | 84° |
| 2026-05-05 09:26 | 60.80944 | -152.17309 | 18335 ft | 354 kts | 84° |
| 2026-05-05 09:26 | 60.81477 | -152.12404 | 17872 ft | 351 kts | 85° |
| 2026-05-05 09:26 | 60.82003 | -152.07531 | 17412 ft | 349 kts | 85° |
| 2026-05-05 09:26 | 60.82503 | -152.02675 | 16957 ft | 347 kts | 85° |
| 2026-05-05 09:27 | 60.82981 | -151.97848 | 16508 ft | 344 kts | 85° |
| 2026-05-05 09:27 | 60.83445 | -151.93051 | 16058 ft | 342 kts | 86° |
| 2026-05-05 09:27 | 60.83901 | -151.88287 | 15611 ft | 340 kts | 86° |
| 2026-05-05 09:27 | 60.84351 | -151.83551 | 15167 ft | 337 kts | 86° |
| 2026-05-05 09:28 | 60.84795 | -151.78851 | 14725 ft | 335 kts | 86° |
| 2026-05-05 09:28 | 60.85236 | -151.74171 | 14290 ft | 333 kts | 86° |
| 2026-05-05 09:28 | 60.85673 | -151.69522 | 13853 ft | 331 kts | 86° |
| 2026-05-05 09:28 | 60.86105 | -151.64914 | 13418 ft | 329 kts | 85° |
| 2026-05-05 09:29 | 60.86536 | -151.60320 | 12983 ft | 327 kts | 85° |
| 2026-05-05 09:29 | 60.86964 | -151.55758 | 12554 ft | 325 kts | 85° |
| 2026-05-05 09:29 | 60.87391 | -151.51219 | 12125 ft | 323 kts | 85° |
| 2026-05-05 09:29 | 60.87886 | -151.46726 | 11726 ft | 323 kts | 81° |
| 2026-05-05 09:30 | 60.88601 | -151.42430 | 11632 ft | 313 kts | 76° |
| 2026-05-05 09:30 | 60.89430 | -151.38273 | 11355 ft | 326 kts | 73° |
| 2026-05-05 09:30 | 60.90361 | -151.33812 | 10772 ft | 351 kts | 73° |
| 2026-05-05 09:30 | 60.91295 | -151.29145 | 10391 ft | 352 kts | 73° |
| 2026-05-05 09:31 | 60.92173 | -151.24622 | 10256 ft | 339 kts | 73° |
| 2026-05-05 09:31 | 60.93026 | -151.20199 | 10110 ft | 327 kts | 73° |
| 2026-05-05 09:31 | 60.93849 | -151.15927 | 9942 ft | 316 kts | 73° |
| 2026-05-05 09:31 | 60.94656 | -151.11811 | 9749 ft | 305 kts | 70° |
| 2026-05-05 09:32 | 60.95775 | -151.08207 | 9600 ft | 294 kts | 58° |
| 2026-05-05 09:32 | 60.97118 | -151.05128 | 9297 ft | 286 kts | 52° |
| 2026-05-05 09:32 | 60.98547 | -151.02313 | 8871 ft | 282 kts | 48° |
| 2026-05-05 09:32 | 61.00006 | -150.99651 | 8391 ft | 279 kts | 46° |
| 2026-05-05 09:33 | 61.01462 | -150.97023 | 7887 ft | 277 kts | 46° |
| 2026-05-05 09:33 | 61.02892 | -150.94394 | 7391 ft | 275 kts | 46° |
| 2026-05-05 09:33 | 61.04295 | -150.91780 | 7000 ft | 268 kts | 46° |
| 2026-05-05 09:33 | 61.05657 | -150.89220 | 6658 ft | 261 kts | 46° |
| 2026-05-05 09:34 | 61.06985 | -150.86716 | 6328 ft | 260 kts | 45° |
| 2026-05-05 09:34 | 61.08369 | -150.84100 | 5994 ft | 273 kts | 44° |
| 2026-05-05 09:34 | 61.09767 | -150.81456 | 5642 ft | 271 kts | 44° |
| 2026-05-05 09:34 | 61.11152 | -150.78834 | 5308 ft | 268 kts | 44° |
| 2026-05-05 09:35 | 61.12511 | -150.76262 | 4955 ft | 262 kts | 43° |
| 2026-05-05 09:35 | 61.14857 | -150.70570 | 4323 ft | 256 kts | 62° |
| 2026-05-05 09:35 | 61.15576 | -150.67351 | 4202 ft | 237 kts | 68° |
| 2026-05-05 09:36 | 61.16120 | -150.64283 | 4076 ft | 218 kts | 72° |
| 2026-05-05 09:36 | 61.16516 | -150.61351 | 3806 ft | 208 kts | 79° |
| 2026-05-05 09:36 | 61.16697 | -150.58405 | 3434 ft | 205 kts | 85° |
| 2026-05-05 09:36 | 61.16759 | -150.55452 | 3112 ft | 200 kts | 88° |
| 2026-05-05 09:37 | 61.16761 | -150.52540 | 2987 ft | 203 kts | 90° |
| 2026-05-05 09:37 | 61.16751 | -150.49622 | 2868 ft | 202 kts | 90° |
| 2026-05-05 09:37 | 61.16747 | -150.46711 | 2754 ft | 202 kts | 90° |
| 2026-05-05 09:37 | 61.16746 | -150.43808 | 2691 ft | 201 kts | 90° |
| 2026-05-05 09:38 | 61.16747 | -150.40912 | 2693 ft | 202 kts | 90° |
| 2026-05-05 09:38 | 61.16749 | -150.38001 | 2706 ft | 201 kts | 90° |
| 2026-05-05 09:38 | 61.16752 | -150.35100 | 2714 ft | 202 kts | 90° |
| 2026-05-05 09:38 | 61.16754 | -150.32188 | 2712 ft | 202 kts | 90° |
| 2026-05-05 09:39 | 61.16757 | -150.29344 | 2651 ft | 190 kts | 90° |
| 2026-05-05 09:39 | 61.16759 | -150.26745 | 2286 ft | 176 kts | 90° |
| 2026-05-05 09:39 | 61.16762 | -150.24322 | 2033 ft | 161 kts | 90° |
| 2026-05-05 09:39 | 61.16764 | -150.22038 | 1814 ft | 156 kts | 90° |
| 2026-05-05 09:40 | 61.16766 | -150.19790 | 1608 ft | 157 kts | 90° |
| 2026-05-05 09:40 | 61.16768 | -150.17521 | 1399 ft | 158 kts | 90° |
| 2026-05-05 09:40 | 61.16770 | -150.15243 | 1192 ft | 158 kts | 90° |
| 2026-05-05 09:40 | 61.16772 | -150.12975 | 982 ft | 157 kts | 90° |
| 2026-05-05 09:41 | 61.16774 | -150.10712 | 774 ft | 157 kts | 90° |
| 2026-05-05 09:41 | 61.16776 | -150.08466 | 561 ft | 155 kts | 90° |
| 2026-05-05 09:41 | 61.16782 | -150.06236 | 355 ft | 156 kts | 90° |
| 2026-05-05 09:41 | 61.16783 | -150.03997 | 191 ft | 155 kts | 90° |
| 2026-05-05 09:42 | 61.16785 | -150.01967 | 166 ft | 114 kts | 91° |
| 2026-05-05 09:42 | 61.16783 | -150.00752 | 165 ft | 58 kts | 90° |
| 2026-05-05 09:42 | 61.16785 | -149.99974 | 165 ft | 49 kts | 88° |
| 2026-05-05 09:42 | 61.16870 | -149.99472 | 165 ft | 35 kts | 49° |
| 2026-05-05 09:43 | 61.17040 | -149.99205 | 165 ft | 20 kts | 37° |
| 2026-05-05 09:43 | 61.17139 | -149.99089 | 165 ft | 14 kts | 358° |
| 2026-05-05 09:43 | 61.17233 | -149.99129 | 165 ft | 13 kts | 347° |
| 2026-05-05 09:43 | 61.17320 | -149.99185 | 165 ft | 13 kts | 342° |
| 2026-05-05 09:44 | 61.17402 | -149.99245 | 165 ft | 12 kts | 339° |
| 2026-05-05 09:44 | 61.17469 | -149.99297 | 165 ft | 7 kts | 339° |
| 2026-05-05 09:44 | 61.17487 | -149.99286 | 165 ft | 2 kts | 47° |
| 2026-05-05 09:44 | 61.17496 | -149.99260 | 165 ft | 2 kts | 56° |
| 2026-05-05 09:45 | 61.17504 | -149.99232 | 165 ft | 2 kts | 68° |
| 2026-05-05 09:45 | 61.17510 | -149.99193 | 165 ft | 3 kts | 70° |
| 2026-05-05 09:45 | 61.17518 | -149.99152 | 165 ft | 1 kts | 70° |